Home > Products > Valid Products > TAF

000
FTUS41 KOKX 252300 RRA
TAFEWR
TAF
KEWR 252357Z 2600/2706 36009KT P6SM BKN080
     FM260500 03010KT P6SM BKN040
     FM261100 04013KT P6SM BKN030
      TEMPO 2611/2615 3SM -SN BR BKN015
     FM261500 04015G22KT 1SM -SN BR BKN007
     FM261800 04015G22KT 3/4SM -SN BR BKN007
     FM262300 02018G28KT 1/2SM SN FZFG VV005
     FM270200 01023G38KT 1/2SM SN FZFG VV005=



000
FTUS41 KOKX 252300 RRA
TAFISP
TAF
KISP 252357Z 2600/2624 33010KT P6SM SCT120 BKN250
     FM260600 03008KT P6SM BKN050
     FM261300 05014KT P6SM BKN030
      TEMPO 2613/2616 3SM -SN BR BKN015
     FM261600 05016G24KT 1SM -SN BR BKN007
     FM261900 04020G30KT 3/4SM -SN BR BKN007
     FM262300 02020G30KT 1/2SM SN FZFG VV005=



000
FTUS41 KOKX 252300 RRA
TAFLGA
TAF
KLGA 252357Z 2600/2624 35010KT P6SM BKN080
     FM260400 03009KT P6SM BKN040
     FM261200 06015G21KT P6SM BKN030
      TEMPO 2613/2615 3SM -SN BR BKN015
     FM261500 06020G30KT 1SM -SN BR BKN007
     FM261800 04020G30KT 3/4SM -SN BR BKN007
     FM262200 02020G30KT 1/2SM SN FZFG VV005=



000
FTUS41 KOKX 252300 RRA
TAFTEB
TAF
KTEB 252357Z 2600/2624 32009KT P6SM BKN080
     FM260600 VRB04KT P6SM BKN040
     FM261100 04008KT P6SM BKN030
      TEMPO 2611/2615 3SM -SN BR BKN015
     FM261500 04010G18KT 1SM -SN BR BKN007
     FM261800 04015G22KT 3/4SM -SN BR BKN007
     FM262300 02018G28KT 1/2SM SN FZFG VV005=



000
FTUS41 KOKX 252300 RRA
TAFBDR
TAF
KBDR 252357Z 2600/2624 33007KT P6SM SCT120 BKN250
     FM260600 03007KT P6SM BKN050
     FM261300 05014KT P6SM BKN030
      TEMPO 2613/2616 3SM -SN BR BKN015
     FM261600 05015G23KT 1SM -SN BR BKN007
     FM261900 04019G29KT 3/4SM -SN BR BKN007
     FM262300 02019G29KT 1/2SM SN FZFG VV005=



000
FTUS41 KOKX 252300 RRA
TAFGON
TAF
KGON 252357Z 2600/2624 31009KT P6SM SCT120 BKN250
     FM260600 02005KT P6SM BKN060
     FM261400 05015G23KT P6SM BKN030
      TEMPO 2615/2618 3SM -SN BR BKN015
     FM261800 05015G23KT 1SM -SN BR BKN007
     FM262100 04019G29KT 3/4SM -SN BR BKN007=



000
FTUS41 KOKX 252300 RRA
TAFSWF
TAF
KSWF 252357Z 2600/2706 VRB03KT P6SM BKN250
     FM260900 VRB05KT P6SM BKN040
     FM261200 07005KT P6SM BKN030
      TEMPO 2613/2616 3SM -SN BR BKN015
     FM261600 06008KT 1SM -SN BR BKN007
     FM261900 04012KT 3/4SM -SN BR BKN007
     FM262300 03014G24KT 1/2SM SN FZFG VV005
     FM270200 02018G33KT 1/2SM SN FZFG VV005
      AMD NOT SKED=



000
FTUS41 KOKX 252300 RRA
TAFJFK
TAF
KJFK 252357Z 2600/2706 36010KT P6SM BKN080
     FM260600 03009KT P6SM BKN040
     FM261200 06014KT P6SM BKN030
      TEMPO 2612/2615 3SM -SN BR BKN015
     FM261500 06016G24KT 1SM -SN BR BKN007
     FM261800 04020G30KT 3/4SM -SN BR BKN007
     FM262200 02020G30KT 1/2SM SN FZFG VV005
     FM270200 01025G40KT 1/2SM SN FZFG VV005=



000
FTUS41 KOKX 252200 AAB
TAFEWR
TAF AMD
KEWR 252225Z 2522/2624 34009KT P6SM SCT120 BKN200
     FM252300 36009KT P6SM BKN080
     FM260500 03010KT P6SM BKN040
     FM261100 04013KT P6SM BKN030
      TEMPO 2611/2615 3SM -SN BR BKN015
     FM261500 04015G22KT 1SM -SN BR BKN007
     FM261800 04015G22KT 3/4SM -SN BR BKN007
     FM262300 02018G28KT 1/2SM SN FZFG VV005=



000
FTUS41 KOKX 252200 AAB
TAFLGA
TAF AMD
KLGA 252224Z 2522/2618 32010KT P6SM SCT080 BKN150
     FM260000 35010KT P6SM BKN080
     FM260400 03009KT P6SM BKN040
     FM261200 06015G21KT P6SM BKN030
      TEMPO 2613/2615 3SM -SN BR BKN015
     FM261500 06020G30KT 1SM -SN BR BKN007=



000
FTUS41 KOKX 252200 AAB
TAFJFK
TAF AMD
KJFK 252219Z 2522/2624 34010KT P6SM SCT080 BKN250
     FM252300 33012KT P6SM BKN080
     FM260600 03009KT P6SM BKN040
     FM261200 06014KT P6SM BKN030
      TEMPO 2612/2615 3SM -SN BR BKN015
     FM261500 06016G24KT 1SM -SN BR BKN007
     FM261800 04020G30KT 3/4SM -SN BR BKN007
     FM262200 02020G30KT 1/2SM SN FZFG VV005=



000
FTUS41 KOKX 251900 AAA
TAFTEB
TAF AMD
KTEB 251926Z 2519/2618 31012G20KT P6SM SCT050 SCT250
     FM252200 32009KT P6SM BKN080
     FM260600 VRB04KT P6SM BKN040
     FM261100 04008KT P6SM BKN030
      TEMPO 2611/2615 3SM -SN BR BKN015
     FM261500 04010G18KT 1SM -SN BR BKN007=



000
FTUS41 KOKX 251900 AAA
TAFBDR
TAF AMD
KBDR 251926Z 2519/2618 30014G25KT P6SM SCT050 SCT250
     FM252200 33007KT P6SM SCT120 BKN250
     FM260600 03007KT P6SM BKN050
     FM261300 05014KT P6SM BKN030
      TEMPO 2613/2616 3SM -SN BR BKN015
     FM261600 05015G23KT 1SM -SN BR BKN007=



000
FTUS41 KOKX 251900 AAA
TAFLGA
TAF AMD
KLGA 251926Z 2519/2618 31014G22KT P6SM SCT050 SCT250
     FM252300 33010KT P6SM BKN080
     FM260600 03009KT P6SM BKN040
     FM261200 06015G21KT P6SM BKN030
      TEMPO 2613/2615 3SM -SN BR BKN015
     FM261500 06020G30KT 1SM -SN BR BKN007=



000
FTUS41 KOKX 251900 AAA
TAFSWF
TAF AMD
KSWF 251926Z 2519/2624 31014G21KT P6SM SCT040
     FM252000 32009KT P6SM SCT040 SCT250
     FM260000 VRB03KT P6SM BKN250
     FM260900 VRB05KT P6SM BKN040
     FM261200 07005KT P6SM BKN030
      TEMPO 2613/2616 3SM -SN BR BKN015
     FM261600 06008KT 1SM -SN BR BKN007
      AMD NOT SKED=



000
FTUS41 KOKX 251900 AAA
TAFISP
TAF AMD
KISP 251926Z 2519/2618 30013G23KT P6SM SCT050 SCT250
     FM252200 33010KT P6SM SCT120 BKN250
     FM260600 03008KT P6SM BKN050
     FM261300 05014KT P6SM BKN030
      TEMPO 2613/2616 3SM -SN BR BKN015
     FM261600 05016G24KT 1SM -SN BR BKN007=



000
FTUS41 KOKX 251900 AAA
TAFJFK
TAF AMD
KJFK 251926Z 2519/2624 31017G23KT P6SM SCT050 SCT250
     FM252300 33012KT P6SM BKN080
     FM260600 03009KT P6SM BKN040
     FM261200 06014KT P6SM BKN030
      TEMPO 2612/2615 3SM -SN BR BKN015
     FM261500 06016G24KT 1SM -SN BR BKN007
     FM261800 04020G30KT 3/4SM -SN BR BKN007
     FM262200 02020G30KT 1/2SM SN FZFG VV005=



000
FTUS41 KOKX 251900 AAA
TAFGON
TAF AMD
KGON 251926Z 2519/2618 30014G22KT P6SM SCT060 SCT250
     FM252200 31009KT P6SM SCT120 BKN250
     FM260600 02005KT P6SM BKN060
     FM261400 05015G23KT P6SM BKN030
      TEMPO 2615/2618 3SM -SN BR BKN015=



000
FTUS41 KOKX 251900 AAA
TAFEWR
TAF AMD
KEWR 251926Z 2519/2624 31016G22KT P6SM SCT050 SCT250
     FM252300 32011KT P6SM BKN080
     FM260600 03010KT P6SM BKN040
     FM261100 04013KT P6SM BKN030
      TEMPO 2611/2615 3SM -SN BR BKN015
     FM261500 04015G22KT 1SM -SN BR BKN007
     FM261800 04015G22KT 3/4SM -SN BR BKN007
     FM262300 02018G28KT 1/2SM SN FZFG VV005=



000
FTUS41 KOKX 251700 RRA
TAFGON
TAF
KGON 251741Z 2518/2618 29014G22KT P6SM SCT060 SCT250
     FM252100 30009KT P6SM SCT120 BKN250
     FM260600 02005KT P6SM BKN060
     FM261400 05015G23KT P6SM BKN030
      TEMPO 2615/2618 3SM -SN BR BKN015=



000
FTUS41 KOKX 251700 RRA
TAFTEB
TAF
KTEB 251741Z 2518/2618 30012G20KT P6SM SCT050 SCT250
     FM252100 32009KT P6SM BKN080
     FM260600 VRB04KT P6SM BKN040
     FM261100 04008KT P6SM BKN030
      TEMPO 2611/2615 3SM -SN BR BKN015
     FM261500 04010G18KT 1SM -SN BR BKN007=



000
FTUS41 KOKX 251700 RRA
TAFLGA
TAF
KLGA 251741Z 2518/2618 30014G22KT P6SM SCT050 SCT250
     FM252100 33010KT P6SM BKN080
     FM260600 03009KT P6SM BKN040
     FM261200 06015G21KT P6SM BKN030
      TEMPO 2613/2615 3SM -SN BR BKN015
     FM261500 06020G30KT 1SM -SN BR BKN007=



000
FTUS41 KOKX 251700 RRA
TAFEWR
TAF
KEWR 251741Z 2518/2624 30016G22KT P6SM SCT050 SCT250
     FM252100 32011KT P6SM BKN080
     FM260600 03010KT P6SM BKN040
     FM261100 04013KT P6SM BKN030
      TEMPO 2611/2615 3SM -SN BR BKN015
     FM261500 04015G22KT 1SM -SN BR BKN007
     FM261800 04015G22KT 3/4SM -SN BR BKN007
     FM262300 02018G28KT 1/2SM SN FZFG VV005=



000
FTUS41 KOKX 251700 RRA
TAFSWF
TAF
KSWF 251741Z 2518/2624 31014G21KT P6SM SCT040
     FM252000 32009KT P6SM SCT040 SCT250
     FM260000 VRB03KT P6SM BKN250
     FM260900 VRB05KT P6SM BKN040
     FM261200 07005KT P6SM BKN030
      TEMPO 2613/2616 3SM -SN BR BKN015
     FM261600 06008KT 1SM -SN BR BKN007
      AMD NOT SKED=



000
FTUS41 KOKX 251700 RRA
TAFBDR
TAF
KBDR 251741Z 2518/2618 30014G25KT P6SM SCT050 SCT250
     FM252100 33007KT P6SM SCT120 BKN250
     FM260600 03007KT P6SM BKN050
     FM261300 05014KT P6SM BKN030
      TEMPO 2613/2616 3SM -SN BR BKN015
     FM261600 05015G23KT 1SM -SN BR BKN007=



000
FTUS41 KOKX 251700 RRA
TAFISP
TAF
KISP 251741Z 2518/2618 29013G23KT P6SM SCT050 SCT250
     FM252100 33010KT P6SM SCT120 BKN250
     FM260600 03008KT P6SM BKN050
     FM261300 05014KT P6SM BKN030
      TEMPO 2613/2616 3SM -SN BR BKN015
     FM261600 05016G24KT 1SM -SN BR BKN007=



000
FTUS41 KOKX 251700 RRA
TAFJFK
TAF
KJFK 251741Z 2518/2624 30017G23KT P6SM SCT050 SCT250
     FM252100 33012KT P6SM BKN080
     FM260600 03009KT P6SM BKN040
     FM261200 06014KT P6SM BKN030
      TEMPO 2612/2615 3SM -SN BR BKN015
     FM261500 06016G24KT 1SM -SN BR BKN007
     FM261800 04020G30KT 3/4SM -SN BR BKN007
     FM262200 02020G30KT 1/2SM SN FZFG VV005=



000
FTUS41 KOKX 251400 AAA
TAFBDR
TAF AMD
KBDR 251445Z 2515/2612 25010KT P6SM SCT050 SCT250
     FM251600 28012G20KT P6SM SCT050 SCT250
     FM252100 33007KT P6SM SCT120 BKN250
     FM260600 03005KT P6SM BKN050=



000
FTUS41 KOKX 251400 AAA
TAFGON
TAF AMD
KGON 251445Z 2515/2612 29014G22KT P6SM SCT060 SCT250
     FM252100 30009KT P6SM SCT120 BKN250
     FM260600 02005KT P6SM BKN060=



000
FTUS41 KOKX 251400 AAB
TAFEWR
TAF AMD
KEWR 251445Z 2515/2618 25012KT P6SM BKN050
     FM251600 29014G20KT P6SM SCT050 SCT250
     FM252100 32011KT P6SM BKN080
     FM260600 03010KT P6SM BKN040
     FM261200 04015KT P6SM BKN030
     FM261500 04017G24KT 2SM -SN BKN020=



000
FTUS41 KOKX 251400 AAA
TAFLGA
TAF AMD
KLGA 251445Z 2515/2612 26014G20KT P6SM BKN050
     FM251600 30014G22KT P6SM SCT050 SCT250
     FM252100 33010KT P6SM BKN080
     FM260600 03009KT P6SM BKN040=



000
FTUS41 KOKX 251400 AAA
TAFTEB
TAF AMD
KTEB 251445Z 2515/2612 25009KT P6SM BKN050
     FM251600 30012G20KT P6SM SCT050 SCT250
     FM252100 32009KT P6SM BKN080
     FM260600 VRB04KT P6SM BKN040=



000
FTUS41 KOKX 251400 AAA
TAFJFK
TAF AMD
KJFK 251445Z 2515/2618 26015KT P6SM BKN050
     FM251600 29017G23KT P6SM SCT050 SCT250
     FM252100 33012KT P6SM BKN080
     FM260600 03009KT P6SM BKN040
     FM261200 06014KT P6SM BKN030
     FM261500 06016G24KT 2SM -SN BR BKN020=



000
FTUS41 KOKX 251400 AAA
TAFSWF
TAF AMD
KSWF 251445Z 2515/2618 31014G21KT P6SM SCT040
     FM252000 32009KT P6SM SCT040 SCT250
     FM260000 VRB03KT P6SM BKN250
     FM260900 VRB05KT P6SM BKN040
     FM261500 06007KT 2SM -SN BR BKN015
      AMD NOT SKED=



000
FTUS41 KOKX 251400 AAA
TAFISP
TAF AMD
KISP 251445Z 2515/2612 25011KT P6SM SCT050 SCT250
     FM251600 29013G23KT P6SM SCT050 SCT250
     FM252100 33010KT P6SM SCT120 BKN250
     FM260600 03005KT P6SM BKN050=



000
FTUS41 KOKX 251200 AAA
TAFEWR
TAF AMD
KEWR 251237Z 2513/2618 25012KT P6SM BKN050
     FM251500 29014G20KT P6SM FEW250
     FM252100 32011KT P6SM BKN080
     FM260600 03010KT P6SM BKN040
     FM261200 04015KT P6SM BKN030
     FM261500 04017G24KT 2SM -SN BKN020=



000
FTUS41 KOKX 251100
TAFSWF
TAF
KSWF 251122Z 2512/2618 30012KT P6SM BKN025
     FM251400 31014G21KT P6SM FEW025 FEW250
     FM252000 32009KT P6SM SCT250
     FM260000 VRB03KT P6SM BKN250
     FM260900 VRB05KT P6SM BKN040
     FM261500 06007KT 2SM -SN BR BKN015
      AMD NOT SKED=



000
FTUS41 KOKX 251100
TAFGON
TAF
KGON 251122Z 2512/2612 29009KT P6SM FEW250
     FM251400 29014G22KT P6SM SCT250
     FM252100 30009KT P6SM SCT120 BKN250
     FM260600 02005KT P6SM BKN060=



000
FTUS41 KOKX 251100
TAFISP
TAF
KISP 251122Z 2512/2612 29011KT P6SM FEW250
     FM251500 30013G23KT P6SM FEW250
     FM252100 33010KT P6SM SCT120 BKN250
     FM260600 03005KT P6SM BKN050=



000
FTUS41 KOKX 251100
TAFEWR
TAF
KEWR 251122Z 2512/2618 26012KT P6SM BKN250
     FM251500 29014G20KT P6SM FEW250
     FM252100 32011KT P6SM BKN080
     FM260600 03010KT P6SM BKN040
     FM261200 04015KT P6SM BKN030
     FM261500 04017G24KT 2SM -SN BKN020=



000
FTUS41 KOKX 251100
TAFBDR
TAF
KBDR 251122Z 2512/2612 27010KT P6SM FEW250
     FM251500 28012G20KT P6SM FEW250
     FM252100 33007KT P6SM SCT120 BKN250
     FM260600 03005KT P6SM BKN050=



000
FTUS41 KOKX 251100
TAFJFK
TAF
KJFK 251122Z 2512/2618 27015KT P6SM SCT250
     FM251500 29017G23KT P6SM SCT250
     FM252100 33012KT P6SM BKN080
     FM260600 03009KT P6SM BKN040
     FM261200 06014KT P6SM BKN030
     FM261500 06016G24KT 2SM -SN BR BKN020=



000
FTUS41 KOKX 251100
TAFTEB
TAF
KTEB 251122Z 2512/2612 25009KT P6SM FEW250
     FM251500 30012G20KT P6SM SCT250
     FM252100 32009KT P6SM BKN080
     FM260600 VRB04KT P6SM BKN040=



000
FTUS41 KOKX 251100
TAFLGA
TAF
KLGA 251122Z 2512/2612 26014G20KT P6SM FEW035 SCT250
     FM251500 30014G22KT P6SM FEW250
     FM252100 33010KT P6SM BKN080
     FM260600 03009KT P6SM BKN040=



000
FTUS41 KOKX 250800 AAA
TAFISP
TAF AMD
KISP 250831Z 2509/2606 29011KT P6SM SCT030 BKN080
     FM251500 29013G20KT P6SM FEW250
     FM252000 32007KT P6SM FEW250
     FM260300 VRB04KT P6SM BKN060=



000
FTUS41 KOKX 250800 AAA
TAFGON
TAF AMD
KGON 250831Z 2509/2606 29009KT P6SM BKN070 BKN250
     FM251400 29014G22KT P6SM SCT250
     FM252100 30009KT P6SM SKC
     FM260400 VRB04KT P6SM BKN150=



000
FTUS41 KOKX 250800 AAA
TAFBDR
TAF AMD
KBDR 250831Z 2509/2606 28007KT P6SM BKN080 BKN250
     FM251500 28010G17KT P6SM FEW250
     FM252100 31007KT P6SM FEW250
     FM260400 VRB04KT P6SM BKN060=



000
FTUS41 KOKX 250800 AAA
TAFLGA
TAF AMD
KLGA 250831Z 2509/2606 26014G20KT P6SM SCT035 SCT250
     FM251500 30012G20KT P6SM FEW250
     FM252000 33010KT P6SM FEW250
     FM260300 02009KT P6SM BKN060=



000
FTUS41 KOKX 250800 AAA
TAFJFK
TAF AMD
KJFK 250831Z 2509/2612 27015KT P6SM SCT035 SCT250
     FM251500 29014G21KT P6SM SCT250
     FM252100 33011KT P6SM FEW250
     FM260300 01008KT P6SM BKN060
     FM260700 03009KT P6SM BKN035=



000
FTUS41 KOKX 250800 AAA
TAFTEB
TAF AMD
KTEB 250831Z 2509/2606 25007KT P6SM SCT035 BKN080
     FM251500 30010G17KT P6SM SCT250
     FM252000 32008KT P6SM FEW250
     FM260300 VRB04KT P6SM BKN060=



000
FTUS41 KOKX 250800 AAA
TAFSWF
TAF AMD
KSWF 250831Z 2509/2612 30010KT P6SM BKN025 BKN120
     FM251100 29012KT P6SM SCT030 SCT250
     FM251500 31014G22KT P6SM FEW250
     FM252000 32011KT P6SM SKC
     FM260800 VRB03KT P6SM BKN050
      AMD NOT SKED=



000
FTUS41 KOKX 250800 AAA
TAFEWR
TAF AMD
KEWR 250831Z 2509/2612 26012KT P6SM SCT035 BKN250
     FM251500 29011G18KT P6SM FEW250
     FM252100 32011KT P6SM FEW250
     FM260300 36008KT P6SM BKN060
     FM260700 03010KT P6SM BKN035=



000
FTUS41 KOKX 250500
TAFSWF
TAF
KSWF 250523Z 2506/2612 30013G20KT P6SM BKN070
     FM250900 28010KT P6SM BKN120
     FM251300 29012KT P6SM FEW250
     FM251500 31014G22KT P6SM FEW250
     FM252000 32011KT P6SM SKC
     FM260800 VRB03KT P6SM BKN050
      AMD NOT SKED=



000
FTUS41 KOKX 250500
TAFEWR
TAF
KEWR 250523Z 2506/2612 28008KT P6SM BKN080 BKN250
     FM250900 26008KT P6SM BKN250
     FM251500 29011G18KT P6SM FEW250
     FM252100 32011KT P6SM FEW250
     FM260300 36008KT P6SM BKN060
     FM260700 03010KT P6SM BKN035=



000
FTUS41 KOKX 250500
TAFISP
TAF
KISP 250523Z 2506/2606 28009KT P6SM BKN080
     FM251500 29013G20KT P6SM FEW250
     FM252000 32007KT P6SM FEW250
     FM260300 VRB04KT P6SM BKN060=



000
FTUS41 KOKX 250500
TAFTEB
TAF
KTEB 250523Z 2506/2606 29007KT P6SM SCT035 BKN080
      TEMPO 2506/2507 BKN035
     FM251500 30010G17KT P6SM SCT250
     FM252000 32008KT P6SM FEW250
     FM260300 VRB04KT P6SM BKN060=



000
FTUS41 KOKX 250500
TAFGON
TAF
KGON 250523Z 2506/2606 29009KT P6SM BKN070 BKN250
     FM251400 29014G22KT P6SM SCT250
     FM252100 30009KT P6SM SKC
     FM260400 VRB04KT P6SM BKN150=



000
FTUS41 KOKX 250500
TAFLGA
TAF
KLGA 250523Z 2506/2606 30013KT P6SM BKN080 OVC250
     FM250900 28012KT P6SM BKN250
     FM251500 30012G19KT P6SM FEW250
     FM252000 33010KT P6SM FEW250
     FM260300 02009KT P6SM BKN060=



000
FTUS41 KOKX 250500
TAFBDR
TAF
KBDR 250523Z 2506/2606 28007KT P6SM BKN080 BKN250
     FM251500 28010G17KT P6SM FEW250
     FM252100 31007KT P6SM FEW250
     FM260400 VRB04KT P6SM BKN060=



000
FTUS41 KOKX 250500
TAFJFK
TAF
KJFK 250523Z 2506/2612 29012G19KT P6SM FEW050 BKN080
     FM250700 27013KT P6SM BKN080 BKN250
     FM251500 29014G21KT P6SM SCT250
     FM252100 33011KT P6SM FEW250
     FM260300 01008KT P6SM BKN060
     FM260700 03009KT P6SM BKN035=



000
FTUS41 KOKX 250400 AAB
TAFJFK
TAF AMD
KJFK 250440Z 2505/2606 30012G20KT P6SM FEW050 BKN080
     FM250700 27013KT P6SM BKN080 BKN250
     FM251300 28012KT P6SM FEW250
     FM251700 30013G20KT P6SM SCT250
     FM252100 32011KT P6SM FEW250
     FM260000 34009KT P6SM SKC
     FM260300 36008KT P6SM BKN060=



000
FTUS41 KOKX 250200 AAA
TAFJFK
TAF AMD
KJFK 250238Z 2503/2606 29013G19KT P6SM FEW140 SCT250
     FM250400 28013KT P6SM SCT025 BKN080
     FM250900 26014KT P6SM FEW250
     FM251300 28012KT P6SM FEW250
     FM251700 30013G20KT P6SM SCT250
     FM252100 32011KT P6SM FEW250
     FM260000 34009KT P6SM SKC
     FM260300 36008KT P6SM BKN060=



000
FTUS41 KOKX 250200 AAA
TAFBDR
TAF AMD
KBDR 250238Z 2503/2524 30007KT P6SM SCT250
     FM250600 27007KT P6SM BKN120
     FM251500 29010G17KT P6SM SCT250
     FM252200 31007KT P6SM FEW250=



000
FTUS41 KOKX 250200 AAB
TAFEWR
TAF AMD
KEWR 250238Z 2503/2606 26008KT P6SM SCT250
     FM250400 27008KT P6SM SCT025 BKN080
     FM250800 25008KT P6SM FEW250
     FM251300 27009KT P6SM FEW250
     FM251600 29011G18KT P6SM SCT250
     FM252100 32009KT P6SM FEW250
     FM260000 34007KT P6SM SKC
     FM260300 36008KT P6SM BKN060=



000
FTUS41 KOKX 250200 AAA
TAFTEB
TAF AMD
KTEB 250238Z 2503/2524 29009KT P6SM SCT250
     FM250500 27007KT P6SM BKN100
     FM251500 31010G17KT P6SM SCT250
     FM252000 32007KT P6SM FEW250=



000
FTUS41 KOKX 250200 AAA
TAFGON
TAF AMD
KGON 250238Z 2503/2524 28009KT P6SM BKN120
     FM251400 29013G21KT P6SM SCT250
     FM252100 30009KT P6SM SKC=



000
FTUS41 KOKX 250200 AAB
TAFSWF
TAF AMD
KSWF 250238Z 2503/2606 30013KT P6SM FEW025 BKN080
     FM250900 28010KT P6SM SCT120
     FM251300 29012KT P6SM SCT025 SCT250
     FM251500 31013G20KT P6SM SCT250
     FM252000 32009KT P6SM FEW250
     FM252300 VRB04KT P6SM SCT200
      AMD NOT SKED=



000
FTUS41 KOKX 250200 AAA
TAFISP
TAF AMD
KISP 250238Z 2503/2524 30007KT P6SM SCT150 BKN250
     FM250600 27010KT P6SM BKN120
     FM251500 30013G20KT P6SM SCT250
     FM252000 31011KT P6SM FEW250=



000
FTUS41 KOKX 250200 AAA
TAFLGA
TAF AMD
KLGA 250238Z 2503/2524 29015G23KT P6SM FEW250
     FM250400 29014KT P6SM SCT025 BKN080
     FM250900 26013KT P6SM FEW250
     FM251300 28012KT P6SM FEW250
     FM251600 30012G19KT P6SM SCT250
     FM252000 32010KT P6SM FEW250=



000
FTUS41 KOKX 250100 AAA
TAFEWR
TAF AMD
KEWR 250122Z 2501/2606 26009KT P6SM FEW050 SCT100
     FM250400 28010KT P6SM SCT025 BKN080
     FM250800 26008KT P6SM FEW250
     FM251300 28009KT P6SM FEW250
     FM251600 30011G18KT P6SM SCT250
     FM252100 32009KT P6SM FEW250
     FM260000 34007KT P6SM SKC
     FM260300 36008KT P6SM BKN060=



000
FTUS41 KOKX 250100 AAA
TAFEWR
TAF AMD
KEWR 250122Z 2501/2606 26009KT P6SM FEW050 SCT100
     FM250400 28010KT P6SM SCT025 BKN080
     FM250800 26008KT P6SM FEW250
     FM251300 28009KT P6SM FEW250
     FM251600 30011G18KT P6SM SCT250
     FM252100 32009KT P6SM FEW250
     FM260000 34007KT P6SM SKC
     FM260300 36008KT P6SM BKN060=



000
FTUS41 KOKX 250000 AAA
TAFSWF
TAF AMD
KSWF 250015Z 2500/2606 VRB04KT 4SM BR SCT004
     FM250300 VRB05KT 4SM BR FEW025 BKN050
     FM250900 27007KT P6SM SCT120
     FM251300 30008KT P6SM SCT025 SCT250
     FM251500 31012G19KT P6SM SCT250
     FM252000 32009KT P6SM FEW250
     FM252300 VRB04KT P6SM SCT200
      AMD NOT SKED=



000
FTUS41 KOKX 242300
TAFISP
TAF
KISP 242338Z 2500/2524 30011KT P6SM SCT025 BKN045
     FM250200 30012G21KT P6SM FEW025 SCT120
     FM250600 27010KT P6SM BKN120
     FM251500 30013G20KT P6SM SCT250
     FM252000 31011KT P6SM FEW250=



000
FTUS41 KOKX 242300
TAFSWF
TAF
KSWF 242338Z 2500/2606 VRB04KT 4SM BR BKN008
     FM250400 VRB05KT 4SM BR FEW025 BKN050
     FM250900 27007KT P6SM SCT120
     FM251300 30008KT P6SM SCT025 SCT250
     FM251500 31012G19KT P6SM SCT250
     FM252000 32009KT P6SM FEW250
     FM252300 VRB04KT P6SM SCT200
      AMD NOT SKED=



000
FTUS41 KOKX 242300
TAFLGA
TAF
KLGA 242338Z 2500/2524 30010G18KT P6SM FEW015 SCT040 BKN060
     FM250100 29014G22KT P6SM FEW025 SCT120
     FM250400 28013KT P6SM SCT025 BKN080
     FM250900 26013KT P6SM FEW250
     FM251300 28012KT P6SM FEW250
     FM251600 30012G19KT P6SM SCT250
     FM252000 32010KT P6SM FEW250=



000
FTUS41 KOKX 242300
TAFGON
TAF
KGON 242338Z 2500/2524 33013G20KT 6SM -SNRA BR FEW009 OVC040
      TEMPO 2500/2501 3SM -SN BKN015
     FM250100 31011KT P6SM FEW025 BKN045
     FM250300 30011G18KT P6SM FEW025 SCT120
     FM250700 28007KT P6SM BKN120
     FM251400 29013G21KT P6SM SCT250
     FM252100 30009KT P6SM SKC=



000
FTUS41 KOKX 242300
TAFTEB
TAF
KTEB 242338Z 2500/2524 VRB05KT P6SM FEW060 BKN080
     FM250200 30008KT P6SM FEW025 SCT120
     FM250500 27007KT P6SM BKN120
     FM251500 31010G17KT P6SM SCT250
     FM252000 32007KT P6SM FEW250=



000
FTUS41 KOKX 242300
TAFJFK
TAF
KJFK 242338Z 2500/2606 30010KT P6SM SCT025 BKN045
     FM250100 29015G23KT P6SM FEW025 SCT120
     FM250400 28014KT P6SM SCT025 BKN080
     FM250900 26014KT P6SM FEW250
     FM251300 28012KT P6SM FEW250
     FM251700 30013G20KT P6SM SCT250
     FM252100 32011KT P6SM FEW250
     FM260000 34009KT P6SM SKC
     FM260300 36008KT P6SM BKN060=



000
FTUS41 KOKX 242300
TAFEWR
TAF
KEWR 242338Z 2500/2606 27009KT P6SM SCT045 OVC080
     FM250100 28012G19KT P6SM FEW025 SCT120
     FM250400 28010KT P6SM SCT025 BKN080
     FM250800 26008KT P6SM FEW250
     FM251300 28009KT P6SM FEW250
     FM251600 30011G18KT P6SM SCT250
     FM252100 32009KT P6SM FEW250
     FM260000 34007KT P6SM SKC
     FM260300 36008KT P6SM BKN060=



000
FTUS41 KOKX 242300
TAFBDR
TAF
KBDR 242338Z 2500/2524 29008KT P6SM SCT025 BKN045
     FM250200 30009KT P6SM FEW025 SCT120
     FM250600 27007KT P6SM BKN120
     FM251500 29010G17KT P6SM SCT250
     FM252200 31007KT P6SM FEW250=



000
FTUS41 KOKX 242300 AAC
TAFISP
TAF AMD
KISP 242317Z 2423/2518 30011KT 4SM -RA BR SCT015 BKN025
      TEMPO 2423/2424 2SM -SN BKN015
     FM250000 30010KT P6SM BKN045 OVC080
     FM250100 31011G19KT P6SM FEW025 SCT120
     FM250600 27009KT P6SM BKN080
     FM251300 29015G23KT P6SM FEW050 SCT250=



000
FTUS41 KOKX 242100 AAC
TAFJFK
TAF AMD
KJFK 242157Z 2422/2524 31011KT P6SM FEW025 BKN035 OVC070
      TEMPO 2422/2423 5SM -RASN BKN025
     FM250100 29016G24KT P6SM FEW025 SCT120
     FM250500 27012G19KT P6SM BKN080
     FM251300 29013G20KT P6SM FEW050 SCT250
     FM252100 32010KT P6SM FEW040=



000
FTUS41 KOKX 242100 AAB
TAFLGA
TAF AMD
KLGA 242156Z 2422/2518 32012G20KT P6SM SCT015 BKN040
      TEMPO 2422/2423 5SM -RASN BKN020
     FM250100 29014G22KT P6SM FEW025 SCT120
     FM250500 27012G19KT P6SM BKN080
     FM251300 29013G20KT P6SM FEW050 SCT250=



000
FTUS41 KOKX 242100 AAC
TAFEWR
TAF AMD
KEWR 242152Z 2422/2524 28010KT P6SM SCT030 OVC050
      TEMPO 2422/2423 29012G20KT 5SM -RASN BKN025
     FM250000 29014G22KT P6SM FEW025 SCT120
     FM250500 27009KT P6SM BKN080
     FM251300 29012G19KT P6SM FEW050 SCT250
     FM252100 32008KT P6SM FEW040=



000
FTUS41 KOKX 242100 AAB
TAFGON
TAF AMD
KGON 242151Z 2422/2518 01014G20KT P6SM VCSH BKN010
     FM242300 34015G22KT 2SM -SNRA BR OVC009
     FM250200 32012G19KT P6SM FEW025 SCT120
     FM250500 27008KT P6SM BKN080
     FM251300 30015G23KT P6SM FEW050 SCT250=



000
FTUS41 KOKX 242100 AAB
TAFISP
TAF AMD
KISP 242150Z 2422/2518 32012KT 4SM -RA BR SCT007 BKN015
      TEMPO 2422/2424 2SM -RASN BKN007
     FM250100 31011G19KT P6SM FEW025 SCT120
     FM250600 27009KT P6SM BKN080
     FM251300 29015G23KT P6SM FEW050 SCT250=



000
FTUS41 KOKX 242100 AAB
TAFTEB
TAF AMD
KTEB 242149Z 2422/2518 33009KT 6SM -RASN BKN060
      TEMPO 2422/2423 3SM -SN BKN020
     FM250000 31010G17KT P6SM FEW025 SCT120
     FM250500 27007KT P6SM BKN080
     FM251400 31010G17KT P6SM FEW050 SCT250=



000
FTUS41 KOKX 242100 AAB
TAFBDR
TAF AMD
KBDR 242148Z 2422/2518 32009KT 6SM -RASN BR SCT020 BKN050
      TEMPO 2422/2424 3SM -SN BKN020
     FM250100 31010G18KT P6SM FEW025 SCT120
     FM250500 27007KT P6SM BKN080
     FM251300 29011G19KT P6SM FEW050 SCT250=



000
FTUS41 KOKX 242100 AAB
TAFJFK
TAF AMD
KJFK 242145Z 2422/2524 33013KT 6SM -RASN FEW025 BKN050 OVC070
      TEMPO 2422/2423 3SM -SN BKN025
     FM250100 29016G24KT P6SM FEW025 SCT120
     FM250500 27012G19KT P6SM BKN080
     FM251300 29013G20KT P6SM FEW050 SCT250
     FM252100 32010KT P6SM FEW040=



000
FTUS41 KOKX 242100 AAB
TAFEWR
TAF AMD
KEWR 242143Z 2422/2524 28010KT 4SM -RASN BKN025
      TEMPO 2422/2423 29012G20KT 2SM -SN BKN015
     FM250000 29014G22KT P6SM FEW025 SCT120
     FM250500 27009KT P6SM BKN080
     FM251300 29012G19KT P6SM FEW050 SCT250
     FM252100 32008KT P6SM FEW040=



000
FTUS41 KOKX 242000 AAA
TAFLGA
TAF AMD
KLGA 242036Z 2421/2518 33014G22KT P6SM VCSH SCT010 BKN025
     FM242200 32016G23KT 4SM -RASN BKN015
      TEMPO 2422/2424 2SM -SN
     FM250100 29014G22KT P6SM FEW025 SCT120
     FM250500 27012G19KT P6SM BKN080
     FM251300 29013G20KT P6SM FEW050 SCT250=



000
FTUS41 KOKX 242000 AAA
TAFISP
TAF AMD
KISP 242036Z 2421/2518 34015G20KT 1SM -DZ BR OVC004
     FM242200 33015G22KT 2SM -RASN BR OVC004
     FM250100 31011G19KT P6SM FEW025 SCT120
     FM250600 27009KT P6SM BKN080
     FM251300 29015G23KT P6SM FEW050 SCT250=



000
FTUS41 KOKX 242000 AAA
TAFEWR
TAF AMD
KEWR 242036Z 2421/2524 33014G23KT P6SM VCSH SCT015 BKN020
     FM242200 32015G23KT 4SM -RASN BKN015
      TEMPO 2422/2424 2SM -SN
     FM250000 29014G22KT P6SM FEW025 SCT120
     FM250500 27009KT P6SM BKN080
     FM251300 29012G19KT P6SM FEW050 SCT250
     FM252100 32008KT P6SM FEW040=



000
FTUS41 KOKX 242000 AAA
TAFJFK
TAF AMD
KJFK 242036Z 2421/2524 33016G22KT 4SM -RASN BKN012
      TEMPO 2422/2424 2SM -SN
     FM250100 29016G24KT P6SM FEW025 SCT120
     FM250500 27012G19KT P6SM BKN080
     FM251300 29013G20KT P6SM FEW050 SCT250
     FM252100 32010KT P6SM FEW040=



000
FTUS41 KOKX 242000 AAA
TAFGON
TAF AMD
KGON 242036Z 2421/2518 36015G22KT 4SM BR VCSH BKN009
     FM242300 34015G22KT 2SM -SNRA BR OVC009
     FM250200 32012G19KT P6SM FEW025 SCT120
     FM250500 27008KT P6SM BKN080
     FM251300 30015G23KT P6SM FEW050 SCT250=



000
FTUS41 KOKX 242000 AAA
TAFBDR
TAF AMD
KBDR 242036Z 2421/2518 33010G18KT P6SM BKN015
     FM242200 34009KT 4SM -RASN BR OVC015
      TEMPO 2423/2501 2SM -SN
     FM250100 31010G18KT P6SM FEW025 SCT120
     FM250500 27007KT P6SM BKN080
     FM251300 29011G19KT P6SM FEW050 SCT250=



000
FTUS41 KOKX 242000 AAA
TAFTEB
TAF AMD
KTEB 242036Z 2421/2518 33012G20KT P6SM SCT015 BKN050
     FM242200 32012G20KT 4SM -RASN BKN015
      TEMPO 2422/2424 2SM -SN
     FM250000 31010G17KT P6SM FEW025 SCT120
     FM250500 27007KT P6SM BKN080
     FM251400 31010G17KT P6SM FEW050 SCT250=



000
FTUS41 KOKX 241700 RRA
TAFGON
TAF
KGON 241749Z 2418/2518 01012KT 2SM -RA BR BKN006
     FM242300 34011G18KT 2SM -SN BR OVC006
     FM250200 32010G17KT P6SM FEW025 SCT120
     FM250500 27008KT P6SM BKN080
     FM251300 30015G23KT P6SM FEW050 SCT250=



000
FTUS41 KOKX 241700 RRA
TAFSWF
TAF
KSWF 241749Z 2418/2524 VRB05KT 1SM BR BKN007
     FM242000 34007KT 1SM -SN BR OVC007
     FM242300 31011G19KT P6SM FEW025 SCT120
     FM250300 29008KT P6SM FEW025 BKN080
     FM250800 29010KT P6SM FEW025 BKN120
     FM251300 29013G20KT P6SM FEW050 SCT250
     FM252100 32008KT P6SM FEW040
      AMD NOT SKED=



000
FTUS41 KOKX 241700 RRA
TAFBDR
TAF
KBDR 241749Z 2418/2518 36012KT 4SM -DZ BR BKN007
      TEMPO 2418/2419 SCT007 BKN040
     FM242100 34009KT 2SM -SN BR OVC007
     FM250100 31010G18KT P6SM FEW025 SCT120
     FM250500 27007KT P6SM BKN080
     FM251300 29011G19KT P6SM FEW050 SCT250=



000
FTUS41 KOKX 241700
TAFJFK
TAF
KJFK 241740Z 2418/2524 35012KT 4SM -RA BR OVC004
     FM242000 33013KT 2SM -SN BR OVC005
     FM250100 29016G24KT P6SM FEW025 SCT120
     FM250500 27012G19KT P6SM BKN080
     FM251300 29013G20KT P6SM FEW050 SCT250
     FM252100 32010KT P6SM FEW040=



000
FTUS41 KOKX 241700
TAFTEB
TAF
KTEB 241740Z 2418/2518 35008KT 4SM -DZ BR BKN006
     FM242000 32010G17KT 2SM -SN BR OVC006
     FM250000 31010G17KT P6SM FEW025 SCT120
     FM250500 27007KT P6SM BKN080
     FM251400 31010G17KT P6SM FEW050 SCT250=



000
FTUS41 KOKX 241700
TAFISP
TAF
KISP 241740Z 2418/2518 35013KT 2SM -RA BR OVC004
     FM242100 33012G19KT 1SM -SN BR OVC004
     FM250100 31010G18KT P6SM FEW025 SCT120
     FM250600 27009KT P6SM BKN080
     FM251300 29015G23KT P6SM FEW050 SCT250=



000
FTUS41 KOKX 241700
TAFEWR
TAF
KEWR 241740Z 2418/2524 35012KT 2SM -DZ BR OVC008
     FM242000 32014G22KT 2SM -SN BR OVC008
     FM250000 29014G22KT P6SM FEW025 SCT120
     FM250500 27009KT P6SM BKN080
     FM251300 29012G19KT P6SM FEW050 SCT250
     FM252100 32008KT P6SM FEW040=



000
FTUS41 KOKX 241700
TAFLGA
TAF
KLGA 241740Z 2418/2518 01010KT 2SM -DZ BR OVC008
     FM242000 32012KT 2SM -SN BR OVC008
     FM250100 29014G22KT P6SM FEW025 SCT120
     FM250500 27012G19KT P6SM BKN080
     FM251300 29013G20KT P6SM FEW050 SCT250=



000
FTUS41 KOKX 241600 AAB
TAFGON
TAF AMD
KGON 241621Z 2416/2512 01011KT 2SM -SNRA BR OVC006
     FM242200 34009G17KT 2SM -SN BR OVC006
     FM250000 33010G17KT 2SM -SN BR OVC015
     FM250200 29010G19KT P6SM BKN050
     FM250600 29008KT P6SM BKN100=



000
FTUS41 KOKX 241600 AAC
TAFEWR
TAF AMD
KEWR 241621Z 2416/2518 01012KT 4SM BR OVC005
     FM241800 34012KT 2SM -RASN BR OVC006
     FM242000 32014G20KT 2SM -SN BR OVC006
     FM250000 30014G22KT P6SM BKN070
     FM250600 27012G20KT P6SM BKN100
     FM251200 26015G20KT P6SM FEW050 SCT250=



000
FTUS41 KOKX 241600 AAC
TAFTEB
TAF AMD
KTEB 241621Z 2416/2512 02007KT 4SM BR OVC006
      TEMPO 2416/2417 2SM -RA BR
     FM241800 34009KT 2SM -RASN OVC006
     FM242000 32011KT 2SM -SN BR OVC005
     FM250000 30013G20KT P6SM BKN080
     FM250600 29010KT P6SM BKN100=



000
FTUS41 KOKX 241600 AAB
TAFBDR
TAF AMD
KBDR 241621Z 2416/2512 01009KT 2SM -RA BR BKN005
     FM241800 01012G18KT 2SM -RASN BR OVC007
     FM242000 35011G18KT 2SM -SN BR OVC007
     FM250000 32012G22KT P6SM BKN080
     FM250600 27010KT P6SM BKN100=



000
FTUS41 KOKX 241600 AAC
TAFJFK
TAF AMD
KJFK 241621Z 2416/2518 01012KT 4SM -RA BR OVC004
     FM241800 35012KT 4SM -RASN BR OVC004
     FM242000 33013G21KT 2SM -SN BR OVC005
     FM250000 29017G24KT P6SM BKN070
     FM250600 27013G22KT P6SM BKN100
     FM251300 27015G20KT P6SM FEW050 SCT250=



000
FTUS41 KOKX 241600 AAB
TAFISP
TAF AMD
KISP 241621Z 2416/2512 02012KT 2SM -RA BR OVC004
     FM241800 01012KT 2SM -RASN BR OVC004
     FM242000 35012KT 2SM -SN BR OVC004
     FM242200 33012G20KT 2SM -SN BR OVC005
     FM250100 30012G22KT P6SM BKN080
     FM250600 29011KT P6SM BKN100=



000
FTUS41 KOKX 241600 AAD
TAFLGA
TAF AMD
KLGA 241621Z 2416/2512 02011KT 4SM -RA BR OVC006
      TEMPO 2416/2417 2SM -RA BR
     FM241800 36012KT 4SM -RASN BR OVC006
     FM242000 32013G18KT 2SM -SN BR OVC006
     FM250000 29014G23KT P6SM BKN070
     FM250600 28012G21KT P6SM BKN100=



000
FTUS41 KOKX 241400 AAA
TAFISP
TAF AMD
KISP 241445Z 2415/2512 04011KT 2SM -RA BR OVC004
     FM241800 01012KT 2SM -RAPL BR OVC004
     FM242000 35011KT 2SM -SN BR OVC004
     FM242200 33012G20KT 2SM -SN BR OVC005
     FM250100 30012G22KT P6SM BKN080
     FM250600 29011KT P6SM BKN100=



000
FTUS41 KOKX 241400 AAB
TAFEWR
TAF AMD
KEWR 241445Z 2415/2518 01012KT 2SM -DZ BR OVC005
      TEMPO 2415/2417 1SM -DZ BR
     FM241800 34012KT 2SM -RAPL BR OVC006
     FM242000 32014G20KT 2SM -SN BR OVC006
     FM250000 30014G22KT P6SM BKN070
     FM250600 27012G20KT P6SM BKN100
     FM251200 26015G20KT P6SM FEW050 SCT250=



000
FTUS41 KOKX 241400 AAA
TAFBDR
TAF AMD
KBDR 241445Z 2415/2512 03010KT 2SM -RAPL BR OVC009
     FM241800 01012G18KT 2SM -RAPL BR OVC009
     FM242000 35011G18KT 2SM -SN BR OVC007
     FM250000 32012G22KT P6SM BKN080
     FM250600 27010KT P6SM BKN100=



000
FTUS41 KOKX 241400 AAB
TAFTEB
TAF AMD
KTEB 241445Z 2415/2512 02007KT 2SM -RA BR OVC006
      TEMPO 2415/2418 1SM -RA BR
     FM241800 34009KT 2SM -RAPL OVC006
     FM242000 32011KT 2SM -SN BR OVC005
     FM250000 30013G20KT P6SM BKN080
     FM250600 29010KT P6SM BKN100=



000
FTUS41 KOKX 241400 AAB
TAFJFK
TAF AMD
KJFK 241445Z 2415/2518 02009KT 4SM -RA BR OVC004
     FM241600 01012KT 4SM -RA BR OVC004
     FM241800 35012KT 4SM -RAPL BR OVC008
     FM242000 33013G21KT 2SM -SN BR OVC005
     FM250000 29017G24KT P6SM BKN070
     FM250600 27013G22KT P6SM BKN100
     FM251300 27015G20KT P6SM FEW050 SCT250=



000
FTUS41 KOKX 241400 AAA
TAFGON
TAF AMD
KGON 241445Z 2415/2512 03008KT 2SM RA BR OVC006
     FM242000 01010KT 2SM -SNPL BR OVC006
     FM242200 34009G17KT 2SM -SN BR OVC006
     FM250000 33010G17KT 2SM -SN BR OVC015
     FM250200 29010G19KT P6SM BKN050
     FM250600 29008KT P6SM BKN100=



000
FTUS41 KOKX 241400 AAC
TAFLGA
TAF AMD
KLGA 241445Z 2415/2512 03010KT 1 1/2SM -RA BR OVC004
     FM241600 02012KT 4SM -RA BR OVC004
      TEMPO 2416/2417 2SM -RA BR
     FM241800 36012KT 4SM -RAPL BR OVC004
     FM242000 32013G18KT 2SM -SN BR OVC006
     FM250000 29014G23KT P6SM BKN070
     FM250600 28012G21KT P6SM BKN100=



000
FTUS41 KOKX 241200 AAA
TAFJFK
TAF AMD
KJFK 241228Z 2412/2518 05010KT 2SM -RA BR OVC004
     FM241800 34012KT 2SM -RAPL BR OVC008
     FM242000 32015G22KT 2SM -SN BR OVC005
     FM250000 29017G24KT P6SM BKN070
     FM250600 27013G22KT P6SM BKN100
     FM251300 27015G20KT P6SM FEW050 SCT250=



000
FTUS41 KOKX 241200 AAB
TAFLGA
TAF AMD
KLGA 241228Z 2412/2512 03006KT 2SM -FZRASNPL BR OVC004
     FM241400 02012KT 2SM -RAPL BR OVC006
     FM242000 32015G20KT 2SM -SN BR OVC006
     FM250000 29014G23KT P6SM BKN070
     FM250600 28012G21KT P6SM BKN100=



000
FTUS41 KOKX 241200 AAA
TAFEWR
TAF AMD
KEWR 241213Z 2412/2518 20005KT 2SM -FZRASNPL BR OVC005
     FM241400 03011KT 2SM -RAPL BR OVC009
     FM242000 32015G21KT 2SM -SN BR OVC005
     FM250000 30014G22KT P6SM BKN070
     FM250600 27012G20KT P6SM BKN100
     FM251200 26015G20KT P6SM FEW050 SCT250=



000
FTUS41 KOKX 241200 AAA
TAFLGA
TAF AMD
KLGA 241213Z 2412/2512 03006KT 2SM -FZRASNPL BR OVC006
     FM241400 02012KT 2SM -RAPL BR OVC010
     FM242000 32015G20KT 2SM -SN BR OVC006
     FM250000 29014G23KT P6SM BKN070
     FM250600 28012G21KT P6SM BKN100=



000
FTUS41 KOKX 241200 AAA
TAFTEB
TAF AMD
KTEB 241212Z 2412/2512 03005KT 3SM -RA BR OVC008
     FM241800 35009KT 3SM -RAPL OVC007
     FM242000 32012KT 2SM -SN BR OVC005
     FM250000 30013G20KT P6SM BKN080
     FM250600 29010KT P6SM BKN100=



000
FTUS41 KOKX 241100
TAFGON
TAF
KGON 241120Z 2412/2512 VRB05KT 2SM -SN BR OVC004
     FM241300 04009KT 2SM -RA BR OVC005
     FM242000 32010G18KT 2SM -SNPL BR OVC006
     FM250200 29010G19KT P6SM BKN050
     FM250600 29008KT P6SM BKN100=



000
FTUS41 KOKX 241100
TAFEWR
TAF
KEWR 241120Z 2412/2518 20005KT 2SM -FZRASNPL BR OVC005
     FM241400 03011KT 2SM RAPL BR OVC009
     FM242000 32015G21KT 2SM -SN BR OVC005
     FM250000 30014G22KT P6SM BKN070
     FM250600 27012G20KT P6SM BKN100
     FM251200 26015G20KT P6SM FEW050 SCT250=



000
FTUS41 KOKX 241100
TAFISP
TAF
KISP 241120Z 2412/2512 06007KT 2SM -RA BR OVC005
     FM241900 36013KT 3SM -RAPL BR OVC008
     FM242200 33012G22KT 2SM -SN BR OVC005
     FM250100 30012G22KT P6SM BKN080
     FM250600 29011KT P6SM BKN100=



000
FTUS41 KOKX 241100
TAFLGA
TAF
KLGA 241120Z 2412/2512 03006KT 2SM -FZRASNPL BR OVC006
     FM241400 02012KT 2SM RAPL BR OVC010
     FM242000 32015G20KT 2SM -SN BR OVC006
     FM250000 29014G23KT P6SM BKN070
     FM250600 28012G21KT P6SM BKN100=



000
FTUS41 KOKX 241100
TAFSWF
TAF
KSWF 241120Z 2412/2518 VRB03KT 1SM -SN BR OVC004
     FM241500 VRB03KT 3SM -SN OVC005
     FM241800 33010KT 2SM -SN BR OVC005
     FM242200 30011G17KT P6SM BKN070
     FM250100 28010KT P6SM BKN100
     FM251300 29013G20KT P6SM FEW050 SCT250
      AMD NOT SKED=



000
FTUS41 KOKX 241100
TAFJFK
TAF
KJFK 241120Z 2412/2518 05010KT 2SM -RA BR OVC009
     FM241800 34012KT 2SM -RAPL BR OVC008
     FM242000 32015G22KT 2SM -SN BR OVC005
     FM250000 29017G24KT P6SM BKN070
     FM250600 27013G22KT P6SM BKN100
     FM251300 27015G20KT P6SM FEW050 SCT250=



000
FTUS41 KOKX 241100
TAFBDR
TAF
KBDR 241120Z 2412/2512 VRB03KT 1SM -SN BR OVC005
     FM241300 03010KT 2SM -FZRASNPL BR OVC004
     FM242100 33010G19KT 2SM -SN BR OVC004
     FM250000 32011G21KT P6SM BKN080
     FM250600 27010KT P6SM BKN100=



000
FTUS41 KOKX 241100
TAFTEB
TAF
KTEB 241120Z 2412/2512 02008KT 2SM -FZRASNPL BR BKN005 OVC012
     FM241400 04005KT 2SM RAPL BR OVC008
     FM242000 32012KT 2SM -SN BR OVC005
     FM250000 30013G20KT P6SM BKN080
     FM250600 29010KT P6SM BKN100=



000
FTUS41 KOKX 240900 AAB
TAFISP
TAF AMD
KISP 240958Z 2410/2506 06007KT 2SM RASNPL OVC005
     FM241200 03012KT 1SM RAPL BR OVC005
     FM241800 36015KT 3SM -RAPL BR OVC008
     FM242300 31012G22KT 2SM -SN BR OVC005
     FM250100 30012G22KT P6SM BKN050=



000
FTUS41 KOKX 240900 AAB
TAFISP
TAF AMD
KISP 240958Z 2410/2506 06007KT 2SM RASNPL OVC005
     FM241200 03012KT 1SM RAPL BR OVC005
     FM241800 36015KT 3SM -RAPL BR OVC008
     FM242300 31012G22KT 2SM -SN BR OVC005
     FM250100 30012G22KT P6SM BKN050=



000
FTUS41 KOKX 240900 AAD
TAFJFK
TAF AMD
KJFK 240943Z 2410/2512 05009KT 1SM RASNPL OVC005
     FM241300 36015KT 1SM RAPL BR OVC009
     FM242100 32015G23KT 2SM -SN BR OVC005
     FM250100 29017G24KT P6SM BKN070
     FM250600 27013G26KT P6SM BKN120=



000
FTUS41 KOKX 240900 AAC
TAFEWR
TAF AMD
KEWR 240943Z 2410/2512 20005KT 1/2SM SN OVC012
     FM241100 01010KT 1/2SM FZRASNPL FZFG OVC005
     FM241400 35015KT 1SM RAPL BR OVC009
     FM242000 30015G23KT 2SM -SN BR OVC005
     FM250000 28014G22KT P6SM BKN070
     FM250600 27012G20KT P6SM BKN120=



000
FTUS41 KOKX 240900 AAC
TAFLGA
TAF AMD
KLGA 240943Z 2410/2506 VRB03KT 1/2SM SN FZFG OVC006
     FM241100 02008KT 1/2SM FZRASNPL FZFG OVC005
     FM241400 02012KT 1SM RAPL BR OVC010
     FM242100 32015G22KT 2SM -SN BR OVC006
     FM250100 29014G23KT P6SM BKN070=



000
FTUS41 KOKX 240900 AAC
TAFTEB
TAF AMD
KTEB 240943Z 2410/2506 VRB03KT 1/2SM SN FZFG OVC004
     FM241100 02010KT 1/2SM FZRASNPL FZFG OVC004
     FM241500 36012KT 1SM RAPL BR OVC007
     FM242000 30014G20KT 2SM -SN BR OVC005
     FM250000 30012G20KT P6SM BKN080=



000
FTUS41 KOKX 240900 AAC
TAFJFK
TAF AMD
KJFK 240927Z 2409/2512 05005KT 1/2SM SN FZFG OVC004
      TEMPO 2409/2410 1/4SM +SN FZFG OVC003
     FM241000 02010KT 1/2SM FZRASNPL FZFG OVC005
     FM241300 36015KT 1SM RAPL BR OVC009
     FM242100 32015G23KT 2SM -SN BR OVC005
     FM250100 29017G24KT P6SM BKN070
     FM250600 27013G26KT P6SM BKN120=



000
FTUS41 KOKX 240900 AAC
TAFJFK
TAF AMD
KJFK 240927Z 2409/2512 05005KT 1/2SM SN FZFG OVC004
      TEMPO 2409/2410 1/4SM +SN FZFG OVC003
     FM241000 02010KT 1/2SM FZRASNPL FZFG OVC005
     FM241300 36015KT 1SM RAPL BR OVC009
     FM242100 32015G23KT 2SM -SN BR OVC005
     FM250100 29017G24KT P6SM BKN070
     FM250600 27013G26KT P6SM BKN120=



000
FTUS41 KOKX 240800 AAA
TAFGON
TAF AMD
KGON 240831Z 2409/2506 24008KT 1/2SM SN FZFG OVC004
     FM240900 VRB02KT 1/2SM SN FZFG OVC004
     FM241300 04010KT 1SM FZRASNPL BR OVC005
     FM241600 01014KT 1SM RAPL BR OVC007
     FM242300 32010G18KT 2SM -SN BR OVC006
     FM250300 29010G19KT P6SM BKN050=



000
FTUS41 KOKX 240800 AAB
TAFSWF
TAF AMD
KSWF 240831Z 2409/2512 VRB03KT 1/2SM SN FZFG OVC004
     FM241500 VRB03KT 2SM -SN OVC005
     FM241800 33012G19KT 1SM -SN BR OVC005
     FM242200 30011G17KT P6SM BKN070
     FM250100 28010KT P6SM BKN100
      AMD NOT SKED=



000
FTUS41 KOKX 240800 AAA
TAFBDR
TAF AMD
KBDR 240831Z 2409/2506 VRB03KT 1/2SM SN FZFG OVC004
     FM241300 03010KT 1SM FZRASNPL BR OVC004
     FM241500 36010KT 2SM RAPL BR OVC004
     FM242100 33010G19KT 2SM -SN BR OVC004
     FM250100 30011G21KT P6SM BKN080=



000
FTUS41 KOKX 240800 AAB
TAFTEB
TAF AMD
KTEB 240831Z 2409/2506 VRB03KT 1/2SM SN FZFG OVC004
      TEMPO 2409/2412 1/4SM +SN FZFG OVC003
     FM241200 02010KT 1/2SM FZRASNPL FZFG OVC004
     FM241500 36012KT 1SM RAPL BR OVC007
     FM242000 30014G20KT 2SM -SN BR OVC005
     FM250000 30012G20KT P6SM BKN080=



000
FTUS41 KOKX 240800 AAB
TAFLGA
TAF AMD
KLGA 240831Z 2409/2506 VRB03KT 1/2SM SN FZFG OVC006
      TEMPO 2409/2412 1/4SM +SN FZFG OVC003
     FM241200 02008KT 1/2SM FZRASNPL FZFG OVC005
     FM241400 02012KT 1SM RAPL BR OVC010
     FM242100 32015G22KT 2SM -SN BR OVC006
     FM250100 29014G23KT P6SM BKN070=



000
FTUS41 KOKX 240800 AAB
TAFEWR
TAF AMD
KEWR 240831Z 2409/2512 20005KT 1/2SM SN OVC012
      TEMPO 2409/2412 1/4SM +SN FZFG OVC003
     FM241200 01010KT 1/2SM FZRASNPL FZFG OVC005
     FM241400 35015KT 1SM RAPL BR OVC009
     FM242000 30015G23KT 2SM -SN BR OVC005
     FM250000 28014G22KT P6SM BKN070
     FM250600 27012G20KT P6SM BKN120=



000
FTUS41 KOKX 240800 AAA
TAFISP
TAF AMD
KISP 240831Z 2409/2506 VRB05KT 1/2SM SN FZFG OVC005
     FM241100 05008KT 1/2SM FZRASN FZFG OVC005
     FM241200 03012KT 1SM RAPL BR OVC005
     FM241800 36015KT 3SM -RAPL BR OVC008
     FM242300 31012G22KT 2SM -SN BR OVC005
     FM250100 30012G22KT P6SM BKN050=



000
FTUS41 KOKX 240800 AAB
TAFJFK
TAF AMD
KJFK 240831Z 2409/2512 05005KT 1/2SM SN FZFG OVC004
      TEMPO 2409/2411 1/4SM +SN FZFG OVC003
     FM241100 02010KT 1/2SM FZRASNPL FZFG OVC005
     FM241300 36015KT 1SM RAPL BR OVC009
     FM242100 32015G23KT 2SM -SN BR OVC005
     FM250100 29017G24KT P6SM BKN070
     FM250600 27013G26KT P6SM BKN120=



000
FTUS41 KOKX 240700 AAA
TAFTEB
TAF AMD
KTEB 240734Z 2408/2506 VRB03KT 1/2SM SN FZFG OVC004
      TEMPO 2408/2409 1/4SM +SN FZFG OVC003
     FM241200 02010KT 1/2SM FZRASNPL FZFG OVC004
     FM241500 36012KT 1SM RA BR OVC007
     FM242000 30014G20KT 2SM -SN BR OVC005
     FM250000 30012G20KT P6SM BKN080=



000
FTUS41 KOKX 240700 AAA
TAFJFK
TAF AMD
KJFK 240734Z 2408/2512 VRB05KT 1/2SM SN FZFG OVC004
      TEMPO 2408/2410 1/4SM +SN FZFG OVC003
     FM241000 02010KT 1/2SM FZRASNPL FZFG OVC005
     FM241300 36015KT 1SM RA BR OVC009
     FM242100 32015G23KT 2SM -SN BR OVC005
     FM250100 29017G24KT P6SM BKN070
     FM250600 27013G26KT P6SM BKN120=



000
FTUS41 KOKX 240700 AAA
TAFEWR
TAF AMD
KEWR 240734Z 2408/2512 20005KT 1/2SM SN OVC012
      TEMPO 2408/2410 1/4SM +SN FZFG OVC003
     FM241100 01010KT 1/2SM FZRASNPL FZFG OVC005
     FM241400 35015KT 1SM RA BR OVC009
     FM242000 30015G23KT 2SM -SN BR OVC005
     FM250000 28014G22KT P6SM BKN070
     FM250600 27012G20KT P6SM BKN120=



000
FTUS41 KOKX 240700 AAA
TAFLGA
TAF AMD
KLGA 240734Z 2408/2506 VRB03KT 1/2SM SN FZFG OVC006
      TEMPO 2408/2410 1/4SM +SN FZFG OVC003
     FM241000 02008KT 1/2SM FZRASNPL FZFG OVC005
     FM241400 02012KT 1SM RA BR OVC010
     FM242100 32015G22KT 2SM -SN BR OVC006
     FM250100 29014G23KT P6SM BKN070=



000
FTUS41 KOKX 240700 AAA
TAFSWF
TAF AMD
KSWF 240704Z 2407/2512 VRB03KT 2SM -SN OVC003
     FM240800 VRB03KT 1/2SM SN FZFG OVC004
     FM241800 33012G19KT 1SM -SN BR OVC005
     FM242200 30011G17KT P6SM BKN070
     FM250100 28010KT P6SM BKN100
      AMD NOT SKED=



000
FTUS41 KOKX 240500
TAFSWF
TAF
KSWF 240525Z 2406/2512 VRB03KT P6SM OVC080
     FM240700 VRB03KT 2SM -SN BR BKN012 OVC035
     FM240900 VRB03KT 1/2SM SN FZFG OVC004
     FM241800 33012G19KT 1SM -SN BR OVC005
     FM242200 30011G17KT P6SM BKN070
     FM250100 28010KT P6SM BKN100
      AMD NOT SKED=



000
FTUS41 KOKX 240500
TAFISP
TAF
KISP 240525Z 2406/2506 VRB04KT 2SM -SN BR BKN012 OVC035
     FM240700 VRB05KT 1/2SM SN FZFG OVC005
     FM241000 05008KT 1/2SM FZRASN FZFG OVC005
     FM241200 03012KT 1SM RA BR OVC005
     FM241800 36015KT 3SM -RA BR OVC008
     FM242300 31012G22KT 2SM -SN BR OVC005
     FM250100 30012G22KT P6SM BKN050=



000
FTUS41 KOKX 240500
TAFGON
TAF
KGON 240525Z 2406/2506 24009KT P6SM BKN150
     FM240700 VRB02KT 2SM -SN BR BKN020 OVC040
     FM240900 VRB02KT 1/2SM SN FZFG OVC004
     FM241300 04010KT 1SM FZRASNPL BR OVC005
     FM241600 01014KT 1SM RA BR OVC007
     FM242300 32010G18KT 2SM -SN BR OVC006
     FM250300 29010G19KT P6SM BKN050=



000
FTUS41 KOKX 240500
TAFBDR
TAF
KBDR 240525Z 2406/2506 VRB03KT 2SM -SN BR BKN025 OVC040
     FM240800 VRB03KT 1/2SM SN FZFG OVC005
     FM241200 03010KT 1SM FZRASNPL BR OVC004
     FM241500 36010KT 2SM RA BR OVC004
     FM242100 33010G19KT 2SM -SN BR OVC004
     FM250100 30011G21KT P6SM BKN080=



000
FTUS41 KOKX 240500
TAFEWR
TAF
KEWR 240525Z 2406/2512 20005KT 1 1/2SM -SN OVC012
     FM240700 VRB05KT 1/2SM SN FZFG OVC005
     FM241100 01010KT 1/2SM FZRASNPL FZFG OVC005
     FM241400 35015KT 1SM RA BR OVC009
     FM242000 30015G23KT 2SM -SN BR OVC005
     FM250000 28014G22KT P6SM BKN070
     FM250600 27012G20KT P6SM BKN120=



000
FTUS41 KOKX 240500
TAFTEB
TAF
KTEB 240525Z 2406/2506 20005KT 2SM -SN OVC010
     FM240700 VRB03KT 1/2SM SN FZFG OVC004
     FM241200 02010KT 1/2SM FZRASNPL FZFG OVC004
     FM241500 36012KT 1SM RA BR OVC007
     FM242000 30014G20KT 2SM -SN BR OVC005
     FM250000 30012G20KT P6SM BKN080=



000
FTUS41 KOKX 240500
TAFLGA
TAF
KLGA 240525Z 2406/2506 22007KT 2SM -SN OVC015
     FM240700 VRB05KT 1/2SM SN FZFG OVC006
     FM241000 02008KT 1/2SM FZRASNPL FZFG OVC005
     FM241400 02012KT 1SM RA BR OVC010
     FM242100 32015G22KT 2SM -SN BR OVC006
     FM250100 29014G23KT P6SM BKN070=



000
FTUS41 KOKX 240500
TAFJFK
TAF
KJFK 240525Z 2406/2512 21008KT 2SM -SN OVC012
     FM240700 VRB05KT 1/2SM SN FZFG OVC005
     FM241000 02010KT 1/2SM FZRASNPL FZFG OVC005
     FM241300 36015KT 1SM RA BR OVC009
     FM242100 32015G23KT 2SM -SN BR OVC005
     FM250100 29017G24KT P6SM BKN070
     FM250600 27013G26KT P6SM BKN120=



000
FTUS41 KOKX 240200 AAA
TAFGON
TAF AMD
KGON 240206Z 2402/2424 24009KT P6SM BKN150
     FM240700 VRB02KT 2SM -SN BR BKN020 OVC040
     FM240900 VRB02KT 1/2SM SN FZFG OVC004
     FM241300 04010KT 1SM FZRASNPL BR OVC005
     FM241600 01014KT 1SM RA BR OVC007=



000
FTUS41 KOKX 240200 AAA
TAFTEB
TAF AMD
KTEB 240206Z 2402/2424 22006KT P6SM OVC150
     FM240400 VRB03KT 2SM -SN BR BKN020 OVC040
     FM240600 VRB03KT 1/2SM SN FZFG OVC004
     FM241200 02010KT 1/2SM FZRASNPL FZFG OVC004
     FM241500 36012KT 1SM RA BR OVC007
     FM242000 30014G20KT 2SM -SN BR OVC005=



000
FTUS41 KOKX 240200 AAA
TAFEWR
TAF AMD
KEWR 240206Z 2402/2506 23009KT P6SM OVC120
     FM240400 VRB04KT 2SM -SN BR BKN020 OVC040
     FM240600 VRB05KT 1/2SM SN FZFG OVC005
     FM241100 01010KT 1/2SM FZRASNPL FZFG OVC005
     FM241400 35015KT 1SM RA BR OVC009
     FM242000 30015G23KT 2SM -SN BR OVC005
     FM250000 28014G22KT P6SM BKN070=



000
FTUS41 KOKX 240200 AAA
TAFLGA
TAF AMD
KLGA 240206Z 2402/2424 22008KT P6SM OVC150
     FM240400 22006KT 2SM -SN BR BKN020 OVC040
     FM240600 VRB05KT 1/2SM SN FZFG OVC006
     FM241000 02008KT 1/2SM FZRASNPL FZFG OVC005
     FM241400 02012KT 1SM RA BR OVC010
     FM242100 32015G22KT 2SM -SN BR OVC006=



000
FTUS41 KOKX 240200 AAA
TAFISP
TAF AMD
KISP 240206Z 2402/2424 22005KT P6SM BKN130
     FM240500 VRB04KT 2SM -SN BR BKN012 OVC035
     FM240700 VRB05KT 1/2SM SN FZFG OVC005
     FM241000 05008KT 1/2SM FZRASN FZFG OVC005
     FM241200 03012KT 1SM RA BR OVC005
     FM241800 36015KT 3SM -RA BR OVC008
     FM242300 31012G22KT 2SM -SN BR OVC005=



000
FTUS41 KOKX 240200 AAA
TAFJFK
TAF AMD
KJFK 240206Z 2402/2506 23008KT P6SM OVC150
     FM240400 22006KT 2SM -SN BR BKN020 OVC040
     FM240600 VRB05KT 1/2SM SN FZFG OVC005
     FM241000 02010KT 1/2SM FZRASNPL FZFG OVC005
     FM241300 36015KT 1SM RA BR OVC009
     FM242100 32015G23KT 2SM -SN BR OVC005
     FM250100 29017G24KT P6SM BKN070=



000
FTUS41 KOKX 240200 AAA
TAFBDR
TAF AMD
KBDR 240206Z 2402/2424 21009KT P6SM BKN150
     FM240600 VRB03KT 2SM -SN BR BKN025 OVC040
     FM240800 VRB03KT 1/2SM SN FZFG OVC005
     FM241200 03010KT 1SM FZRASNPL BR OVC004
     FM241500 36010KT 2SM RA BR OVC004
     FM242100 33010G19KT 2SM -SN BR OVC004=



000
FTUS41 KOKX 240100 CCA
TAFJFK
TAF COR
KJFK 240139Z 2402/2506 23008KT P6SM BKN150
     FM240400 22006KT 2SM -SN BR BKN020 OVC040
     FM240600 VRB05KT 1/2SM SN FZFG OVC005
     FM241000 02010KT 1/2SM FZRASNPL FZFG OVC005
     FM241300 36015KT 1SM RA BR OVC009
     FM242100 32015G23KT 2SM -SN BR OVC005
     FM250100 29017G24KT P6SM BKN070=



000
FTUS41 KOKX 240100 CCA
TAFLGA
TAF COR
KLGA 240139Z 2402/2424 22008KT P6SM BKN150
     FM240400 22006KT 2SM -SN BR BKN020 OVC040
     FM240600 VRB05KT 1/2SM SN FZFG OVC006
     FM241000 02008KT 1/2SM FZRASNPL FZFG OVC005
     FM241400 02012KT 1SM RA BR OVC010
     FM242100 32015G22KT 2SM -SN BR OVC006=



000
FTUS41 KOKX 240100 CCA
TAFBDR
TAF COR
KBDR 240139Z 2402/2424 21009KT P6SM BKN150
     FM240600 VRB03KT 2SM -SN BR BKN025 OVC040
     FM240800 VRB03KT 1/2SM SN FZFG OVC005
     FM241200 03010KT 1SM FZRASNPL BR OVC004
     FM241500 36010KT 2SM RA BR OVC004
     FM242100 33010G19KT 2SM -SN BR OVC004=



000
FTUS41 KOKX 240100 CCA
TAFTEB
TAF COR
KTEB 240139Z 2402/2424 22009KT P6SM BKN150
     FM240400 VRB03KT 2SM -SN BR BKN020 OVC040
     FM240600 VRB03KT 1/2SM SN FZFG OVC004
     FM241200 02010KT 1/2SM FZRASNPL FZFG OVC004
     FM241500 36012KT 1SM RA BR OVC007
     FM242000 30014G20KT 2SM -SN BR OVC005=



000
FTUS41 KOKX 240100 CCA
TAFSWF
TAF COR
KSWF 240139Z 2402/2506 26005KT P6SM BKN150
     FM240500 VRB03KT 2SM -SN BR BKN012 OVC035
     FM240700 VRB03KT 1/2SM SN FZFG OVC004
     FM241800 33012G18KT 1SM -SN BR OVC005
     FM242200 30013G21KT P6SM BKN070
      AMD NOT SKED=



000
FTUS41 KOKX 240100 CCA
TAFEWR
TAF COR
KEWR 240139Z 2402/2506 22009KT P6SM BKN150
     FM240400 VRB04KT 2SM -SN BR BKN020 OVC040
     FM240600 VRB05KT 1/2SM SN FZFG OVC005
     FM241100 01010KT 1/2SM FZRASNPL FZFG OVC005
     FM241400 35015KT 1SM RA BR OVC009
     FM242000 30015G23KT 2SM -SN BR OVC005
     FM250000 28014G22KT P6SM BKN070=



000
FTUS41 KOKX 240100 CCA
TAFISP
TAF COR
KISP 240139Z 2402/2424 22008KT P6SM BKN150
     FM240500 VRB04KT 2SM -SN BR BKN012 OVC035
     FM240700 VRB05KT 1/2SM SN FZFG OVC005
     FM241000 05008KT 1/2SM FZRASN FZFG OVC005
     FM241200 03012KT 1SM RA BR OVC005
     FM241800 36015KT 3SM -RA BR OVC008
     FM242300 31012G22KT 2SM -SN BR OVC005=



000
FTUS41 KOKX 240100 CCA
TAFGON
TAF COR
KGON 240139Z 2402/2424 23007KT P6SM SCT150 OVC200
     FM240300 24008KT P6SM BKN150
     FM240700 VRB02KT 2SM -SN BR BKN020 OVC040
     FM240900 VRB02KT 1/2SM SN FZFG OVC004
     FM241300 04010KT 1SM FZRASNPL BR OVC005
     FM241600 01014KT 1SM RA BR OVC007=



000
FTUS41 KOKX 232300
TAFGON
TAF
KGON 232340Z 2400/2424 23007KT P6SM SCT150 OVC200
     FM240300 24008KT P6SM BKN150
     FM240700 VRB02KT 2SM -SN BR BKN020 OVC040
     FM240900 VRB02KT 1/2SM SN FZFG OVC004
     FM241300 04010KT 1SM FZRASNPL BR OVC005
     FM241600 01014KT 1SM RA BR OVC007=



000
FTUS41 KOKX 232300
TAFISP
TAF
KISP 232336Z 2400/2424 22008KT P6SM BKN150
     FM240500 VRB04KT 2SM -SN BR BKN012 OVC035
     FM240700 VRB05KT 1/2SM SN FG OVC005
     FM241000 05008KT 1/2SM FZRASN FZFG OVC005
     FM241200 03012KT 1SM RA BR OVC005
     FM241800 36015KT 3SM -RA BR OVC008
     FM242300 31012G22KT 2SM -SN BR OVC005=



000
FTUS41 KOKX 232300
TAFBDR
TAF
KBDR 232336Z 2400/2424 21009KT P6SM BKN150
     FM240600 VRB03KT 2SM -SN BR BKN025 OVC040
     FM240800 VRB03KT 1/2SM SN FZFG OVC005
     FM241200 03010KT 1SM FZRASNPL BR OVC004
     FM241500 36010KT 2SM RA BR OVC004
     FM242100 33010G19KT 2SM -SN BR OVC004=



000
FTUS41 KOKX 232300
TAFTEB
TAF
KTEB 232336Z 2400/2424 22009KT P6SM BKN150
     FM240400 VRB03KT 2SM -SN BR BKN020 OVC040
     FM240600 VRB03KT 1/2SM SN FG OVC004
     FM241200 02010KT 1/2SM FZRASNPL FG OVC004
     FM241500 36012KT 1SM RA BR OVC007
     FM242000 30014G20KT 2SM -SN BR OVC005=



000
FTUS41 KOKX 232300
TAFLGA
TAF
KLGA 232336Z 2400/2424 22008KT P6SM BKN150
     FM240400 22006KT 2SM -SN BR BKN020 OVC040
     FM240600 VRB05KT 1/2SM SN FG OVC006
     FM241000 02008KT 1/2SM FZRASNPL FG OVC005
     FM241400 02012KT 1SM RA BR OVC010
     FM242100 32015G22KT 2SM -SN BR OVC006=



000
FTUS41 KOKX 232300
TAFEWR
TAF
KEWR 232336Z 2400/2506 22009KT P6SM BKN150
     FM240400 VRB04KT 2SM -SN BR BKN020 OVC040
     FM240600 VRB05KT 1/2SM SN FG OVC005
     FM241100 01010KT 1/2SM FZRASNPL FG OVC005
     FM241400 35015KT 1SM RA BR OVC009
     FM242000 30015G23KT 2SM -SN BR OVC005
     FM250000 28014G22KT P6SM BKN070=



000
FTUS41 KOKX 232300
TAFSWF
TAF
KSWF 232336Z 2400/2506 26005KT P6SM BKN150
     FM240500 VRB03KT 2SM -SN BR BKN012 OVC035
     FM240700 VRB03KT 1/2SM SN FZFG OVC004
     FM241800 33012G18KT 1SM -SN BR OVC005
     FM242200 30013G21KT P6SM BKN070
      AMD NOT SKED=



000
FTUS41 KOKX 232300
TAFJFK
TAF
KJFK 232336Z 2400/2506 23008KT P6SM BKN150
     FM240400 22006KT 2SM -SN BR BKN020 OVC040
     FM240600 VRB05KT 1/2SM SN FG OVC005
     FM241000 02010KT 1/2SM FZRASNPL FG OVC005
     FM241300 36015KT 1SM RA BR OVC009
     FM242100 32015G23KT 2SM -SN BR OVC005
     FM250100 29017G24KT P6SM BKN070=



000
FTUS41 KOKX 232000 AAA
TAFLGA
TAF AMD
KLGA 232031Z 2321/2418 22012KT P6SM FEW250
     FM232300 22008KT P6SM SCT020 BKN150
     FM240400 22006KT 2SM -SN BR BKN020 OVC040
     FM240600 VRB05KT 1SM -SN BR BKN005 OVC010
      TEMPO 2407/2410 1/2SM SN FZFG OVC004
     FM241000 02008KT 1SM FZRASN BR OVC005
     FM241300 36012KT 1SM RAPL BR OVC005
     FM241600 36015G23KT 3SM -RA BR OVC008=



000
FTUS41 KOKX 232000 AAA
TAFEWR
TAF AMD
KEWR 232031Z 2321/2424 23012KT P6SM FEW200
     FM232300 22008KT P6SM SCT020 BKN150
     FM240400 22006KT 2SM -SN BR BKN020 OVC040
     FM240600 VRB05KT 1SM -SN BR BKN005 OVC010
      TEMPO 2407/2410 1/2SM SN FZFG OVC004
     FM241000 03008KT 1SM FZRASN BR OVC005
     FM241300 01015KT 1SM RAPL BR OVC005
     FM241600 01015G23KT 3SM -RA BR OVC008
     FM242100 30015G23KT 1SM -SN BR OVC005=



000
FTUS41 KOKX 232000 AAA
TAFSWF
TAF AMD
KSWF 232031Z 2321/2424 27005KT P6SM SKC
     FM232300 25008KT P6SM SCT020 BKN150
     FM240500 VRB03KT 2SM -SN BR BKN020 OVC040
     FM240700 VRB03KT 1SM -SN BR BKN005 OVC010
      TEMPO 2408/2412 1/2SM SN FZFG OVC004
     FM241300 03008KT 1SM FZRASNPL BR OVC005
     FM241600 35010KT 1SM RAPL BR OVC005
     FM242100 30012G18KT 1SM -SN BR OVC005
      AMD NOT SKED=



000
FTUS41 KOKX 232000 AAB
TAFJFK
TAF AMD
KJFK 232031Z 2321/2424 20012KT P6SM FEW250
     FM232300 22008KT P6SM SCT020 BKN150
     FM240400 22006KT 2SM -SN BR BKN020 OVC040
     FM240600 VRB05KT 1SM -SN BR BKN005 OVC010
      TEMPO 2407/2410 1/2SM SN FZFG OVC004
     FM241000 02010KT 1SM FZRASN BR OVC005
     FM241300 36015KT 1SM RAPL BR OVC005
     FM241600 36015G23KT 3SM -RA BR OVC008
     FM242100 32015G23KT 1SM -SN BR OVC005=



000
FTUS41 KOKX 232000 AAA
TAFGON
TAF AMD
KGON 232031Z 2321/2418 24010KT P6SM FEW250
     FM240100 22008KT P6SM SCT020 BKN150
     FM240700 VRB03KT 2SM -SN BR BKN020 OVC040
     FM240900 VRB05KT 1SM -SN BR BKN005 OVC010
      TEMPO 2409/2412 1/2SM SN FZFG OVC004
     FM241200 03008KT 1SM FZRASN BR OVC005
     FM241500 02012KT 1SM RAPL BR OVC005=



000
FTUS41 KOKX 232000 AAA
TAFISP
TAF AMD
KISP 232031Z 2321/2418 21010KT P6SM FEW250
     FM232300 22008KT P6SM SCT020 BKN150
     FM240500 22006KT 2SM -SN BR BKN020 OVC040
     FM240700 VRB05KT 1SM -SN BR BKN005 OVC010
      TEMPO 2408/2411 1/2SM SN FZFG OVC004
     FM241100 05008KT 1SM FZRASN BR OVC005
     FM241300 02012KT 1SM RAPL BR OVC005
     FM241500 36015G23KT 3SM -RA BR OVC008=



000
FTUS41 KOKX 232000 AAA
TAFTEB
TAF AMD
KTEB 232031Z 2321/2418 25008KT P6SM FEW250
     FM232300 22008KT P6SM SCT020 BKN150
     FM240400 VRB03KT 2SM -SN BR BKN020 OVC040
     FM240600 VRB03KT 1SM -SN BR BKN005 OVC010
      TEMPO 2407/2410 1/2SM SN FZFG OVC004
     FM241000 02006KT 1SM FZRASN BR OVC005
     FM241300 01008KT 1SM RAPL BR OVC005
     FM241600 01012G18KT 3SM -RA BR OVC008=



000
FTUS41 KOKX 232000 AAA
TAFBDR
TAF AMD
KBDR 232031Z 2321/2418 22010KT P6SM FEW250
     FM232300 22006KT P6SM SCT020 BKN150
     FM240500 VRB03KT 2SM -SN BR BKN020 OVC040
     FM240800 VRB03KT 1SM -SN BR BKN005 OVC010
      TEMPO 2408/2412 1/2SM SN FZFG OVC003
     FM241200 03006KT 1SM FZRASN BR OVC004
     FM241500 02008KT 1SM RASNPL BR OVC004=



000
FTUS41 KOKX 231900 AAA
TAFJFK
TAF AMD
KJFK 231900Z 2319/2424 24010KT P6SM FEW250
     FM232200 22008KT P6SM SCT020 BKN150
     FM240400 22006KT 2SM -SN BR BKN020 OVC040
     FM240600 VRB05KT 1SM -SN BR BKN005 OVC010
      TEMPO 2407/2410 1/2SM SN FZFG OVC004
     FM241000 02010KT 1SM FZRASN BR OVC005
     FM241300 36015KT 1SM RAPL BR OVC005
     FM241600 36015G23KT 3SM -RA BR OVC008
     FM242100 32015G23KT 1SM -SN BR OVC005=



000
FTUS41 KOKX 231700
TAFSWF
TAF
KSWF 231732Z 2318/2424 30008KT P6SM SKC
     FM232200 25008KT P6SM SCT020 BKN150
     FM240500 VRB03KT 2SM -SN BR BKN020 OVC040
     FM240700 VRB03KT 1SM -SN BR BKN005 OVC010
      TEMPO 2408/2412 1/2SM SN FZFG OVC004
     FM241300 03008KT 1SM FZRASNPL BR OVC005
     FM241600 35010KT 1SM RAPL BR OVC005
     FM242100 30012G18KT 1SM -SN BR OVC005
      AMD NOT SKED=



000
FTUS41 KOKX 231700
TAFISP
TAF
KISP 231732Z 2318/2418 25007KT P6SM FEW250
     FM232200 22008KT P6SM SCT020 BKN150
     FM240500 22006KT 2SM -SN BR BKN020 OVC040
     FM240700 VRB05KT 1SM -SN BR BKN005 OVC010
      TEMPO 2408/2411 1/2SM SN FZFG OVC004
     FM241100 05008KT 1SM FZRASN BR OVC005
     FM241300 02012KT 1SM RAPL BR OVC005
     FM241500 36015G23KT 3SM -RA BR OVC008=



000
FTUS41 KOKX 231700
TAFGON
TAF
KGON 231732Z 2318/2418 23007KT P6SM FEW250
     FM240000 22008KT P6SM SCT020 BKN150
     FM240700 VRB03KT 2SM -SN BR BKN020 OVC040
     FM240900 VRB05KT 1SM -SN BR BKN005 OVC010
      TEMPO 2409/2412 1/2SM SN FZFG OVC004
     FM241200 03008KT 1SM FZRASN BR OVC005
     FM241500 02012KT 1SM RAPL BR OVC005=



000
FTUS41 KOKX 231700
TAFLGA
TAF
KLGA 231732Z 2318/2418 VRB03KT P6SM FEW250
     FM232000 22008KT P6SM FEW250
     FM232200 22008KT P6SM SCT020 BKN150
     FM240400 22006KT 2SM -SN BR BKN020 OVC040
     FM240600 VRB05KT 1SM -SN BR BKN005 OVC010
      TEMPO 2407/2410 1/2SM SN FZFG OVC004
     FM241000 02008KT 1SM FZRASN BR OVC005
     FM241300 36012KT 1SM RAPL BR OVC005
     FM241600 36015G23KT 3SM -RA BR OVC008=



000
FTUS41 KOKX 231700
TAFTEB
TAF
KTEB 231732Z 2318/2418 VRB05KT P6SM FEW250
     FM232200 22008KT P6SM SCT020 BKN150
     FM240400 VRB03KT 2SM -SN BR BKN020 OVC040
     FM240600 VRB03KT 1SM -SN BR BKN005 OVC010
      TEMPO 2407/2410 1/2SM SN FZFG OVC004
     FM241000 02006KT 1SM FZRASN BR OVC005
     FM241300 01008KT 1SM RAPL BR OVC005
     FM241600 01012G18KT 3SM -RA BR OVC008=



000
FTUS41 KOKX 231700
TAFJFK
TAF
KJFK 231732Z 2318/2424 26008KT P6SM FEW250
     FM232200 22008KT P6SM SCT020 BKN150
     FM240400 22006KT 2SM -SN BR BKN020 OVC040
     FM240600 VRB05KT 1SM -SN BR BKN005 OVC010
      TEMPO 2407/2410 1/2SM SN FZFG OVC004
     FM241000 02010KT 1SM FZRASN BR OVC005
     FM241300 36015KT 1SM RAPL BR OVC005
     FM241600 36015G23KT 3SM -RA BR OVC008
     FM242100 32015G23KT 1SM -SN BR OVC005=



000
FTUS41 KOKX 231700
TAFEWR
TAF
KEWR 231732Z 2318/2424 VRB05KT P6SM FEW250
     FM232200 22008KT P6SM SCT020 BKN150
     FM240400 22006KT 2SM -SN BR BKN020 OVC040
     FM240600 VRB05KT 1SM -SN BR BKN005 OVC010
      TEMPO 2407/2410 1/2SM SN FZFG OVC004
     FM241000 03008KT 1SM FZRASN BR OVC005
     FM241300 01015KT 1SM RAPL BR OVC005
     FM241600 01015G23KT 3SM -RA BR OVC008
     FM242100 30015G23KT 1SM -SN BR OVC005=



000
FTUS41 KOKX 231700
TAFBDR
TAF
KBDR 231732Z 2318/2418 22009KT P6SM FEW250
     FM232200 22006KT P6SM SCT020 BKN150
     FM240500 VRB03KT 2SM -SN BR BKN020 OVC040
     FM240800 VRB03KT 1SM -SN BR BKN005 OVC010
      TEMPO 2408/2412 1/2SM SN FZFG OVC003
     FM241200 03006KT 1SM FZRASN BR OVC004
     FM241500 02008KT 1SM RASNPL BR OVC004=



000
FTUS41 KOKX 231400 AAA
TAFGON
TAF AMD
KGON 231430Z 2315/2412 VRB05KT P6SM SKC
     FM231900 24008KT P6SM SCT150
     FM240300 24004KT P6SM SCT015 OVC060
     FM240700 26004KT 2SM -SN BR BKN015 OVC030
     FM240900 VRB04KT 1SM -SN BR BKN006 OVC015
      TEMPO 2409/2411 1/2SM SN FZFG OVC004
     FM241100 04006KT 1SM -FZRASNPL BR OVC004=



000
FTUS41 KOKX 231400 AAA
TAFBDR
TAF AMD
KBDR 231430Z 2315/2412 VRB05KT P6SM FEW200
     FM231900 23007KT P6SM BKN200
     FM240100 22006KT P6SM SCT020 BKN050
     FM240500 21004KT 2SM -SN BKN020 OVC030
     FM240700 VRB04KT 1SM -SN BKN006 OVC015
      TEMPO 2407/2411 1/2SM SN FZFG OVC004
     FM241100 03008KT 1SM FZRASNPL BR OVC004=



000
FTUS41 KOKX 231400 AAA
TAFEWR
TAF AMD
KEWR 231430Z 2315/2418 VRB05KT P6SM FEW200
     FM231800 23007KT P6SM BKN200
     FM240000 22005KT P6SM SCT020 BKN040
     FM240400 21005KT 2SM -SN BKN020 OVC040
     FM240600 VRB06KT 1SM -SN BKN006 OVC015
      TEMPO 2407/2411 1/2SM SN FZFG OVC004
     FM241100 02010KT 1SM FZRASNPL BR OVC005
     FM241400 36012KT 1SM -SNRA BR OVC005=



000
FTUS41 KOKX 231400 AAA
TAFLGA
TAF AMD
KLGA 231430Z 2315/2412 32009KT P6SM SKC
     FM231600 VRB06KT P6SM FEW200
     FM231800 24008KT P6SM BKN200
     FM240000 22009KT P6SM SCT020 OVC040
     FM240400 22007KT 2SM -SN BR BKN020 OVC040
     FM240600 VRB06KT 1SM -SN BR BKN006 OVC015
      TEMPO 2407/2411 1/2SM SN FZFG OVC004
     FM241100 02010KT 1SM FZRASNPL BR OVC005=



000
FTUS41 KOKX 231400 AAA
TAFISP
TAF AMD
KISP 231430Z 2315/2412 VRB05KT P6SM FEW200
     FM231800 24008KT P6SM BKN200
     FM240100 23007KT P6SM SCT020 BKN050
     FM240500 22004KT 2SM -SN BKN020 OVC030
     FM240700 VRB04KT 1SM -SN BKN006 OVC015
      TEMPO 2407/2411 1/2SM SN FZFG OVC004
     FM241100 03008KT 1/2SM FZRASNPL FZFG OVC004=



000
FTUS41 KOKX 231400 AAA
TAFSWF
TAF AMD
KSWF 231430Z 2315/2418 28012KT P6SM SKC
     FM231600 26006KT P6SM SCT200
     FM240100 23005KT P6SM SCT020 BKN050
     FM240600 21003KT 2SM -SN BR BKN015 OVC030
     FM240800 VRB03KT 1SM -SN BR BKN006 OVC015
      TEMPO 2408/2410 1/2SM SN FZFG OVC004
     FM241000 VRB03KT 1/2SM SN FZFG VV003
     FM241300 36007KT 1SM -FZRASNPL BR OVC004
      AMD NOT SKED=



000
FTUS41 KOKX 231400 AAA
TAFJFK
TAF AMD
KJFK 231430Z 2315/2418 34009KT P6SM SKC
     FM231600 VRB06KT P6SM FEW200
     FM231800 22009KT P6SM BKN200
     FM240000 22008KT P6SM SCT020 OVC040
     FM240400 23007KT 2SM -SN BR BKN020 OVC040
     FM240600 VRB06KT 1SM -SN BR BKN006 OVC015
      TEMPO 2407/2411 1/2SM SN FZFG OVC004
     FM241100 36010KT 1SM FZRASNPL BR OVC005
     FM241300 34012KT 1SM -RAPL BR OVC005=



000
FTUS41 KOKX 231400 AAA
TAFTEB
TAF AMD
KTEB 231430Z 2315/2412 33005KT P6SM SKC
     FM231700 VRB04KT P6SM SKC
     FM231900 23007KT P6SM BKN200
     FM240000 24006KT P6SM SCT020 BKN040
     FM240400 24005KT 2SM -SN BR BKN025 OVC040
     FM240600 VRB04KT 1SM -SN BR BKN006 OVC015
      TEMPO 2407/2411 1/2SM SN FZFG OVC004
     FM241100 02005KT 1/2SM FZRASNPL FZFG OVC004=



000
FTUS41 KOKX 231100
TAFBDR
TAF
KBDR 231139Z 2312/2412 31004KT P6SM SKC
     FM231700 VRB05KT P6SM FEW200
     FM231900 23007KT P6SM BKN200
     FM240100 22006KT P6SM SCT020 BKN050
     FM240300 21004KT 2SM -SN BKN020 OVC030
     FM240500 VRB04KT 1SM -SN BKN006 OVC015
      TEMPO 2407/2411 1/2SM SN FZFG OVC004
     FM241100 03008KT 1SM FZRASNPL BR OVC004=



000
FTUS41 KOKX 231100
TAFISP
TAF
KISP 231139Z 2312/2412 31006KT P6SM SKC
     FM231600 VRB05KT P6SM FEW200
     FM231800 24008KT P6SM BKN200
     FM240100 23007KT P6SM SCT020 BKN050
     FM240300 22004KT 2SM -SN BKN020 OVC030
     FM240500 VRB04KT 1SM -SN BKN006 OVC015
      TEMPO 2407/2411 1/2SM SN FZFG OVC004
     FM241100 03008KT 1/2SM FZRASNPL FZFG OVC004=



000
FTUS41 KOKX 231100
TAFGON
TAF
KGON 231139Z 2312/2412 32008KT P6SM SKC
     FM231700 VRB05KT P6SM SKC
     FM231900 24008KT P6SM FEW200
     FM240100 24005KT P6SM SCT120 BKN200
     FM240300 24004KT P6SM SCT015 OVC060
     FM240500 26004KT 2SM -SN BR BKN015 OVC030
     FM240700 VRB04KT 1SM -SN BR BKN006 OVC015
      TEMPO 2408/2411 1/2SM SN FZFG OVC004
     FM241100 04006KT 1SM -FZRASNPL BR OVC004=



000
FTUS41 KOKX 231100
TAFTEB
TAF
KTEB 231139Z 2312/2412 33005KT P6SM SKC
     FM231700 VRB04KT P6SM SKC
     FM231900 23007KT P6SM BKN200
     FM240000 24006KT P6SM SCT020 BKN040
     FM240200 24005KT 2SM -SN BR BKN025 OVC040
     FM240400 VRB04KT 1SM -SN BR BKN006 OVC015
      TEMPO 2407/2411 1/2SM SN FZFG OVC004
     FM241100 02005KT 1/2SM FZRASNPL FZFG OVC004=



000
FTUS41 KOKX 231100
TAFSWF
TAF
KSWF 231139Z 2312/2418 29007KT P6SM SKC
     FM231500 26006KT P6SM SCT200
     FM240100 23005KT P6SM SCT020 BKN050
     FM240400 21003KT 2SM -SN BR BKN015 OVC030
     FM240600 VRB03KT 1SM -SN BR BKN006 OVC015
      TEMPO 2407/2410 1/2SM SN FZFG OVC004
     FM241000 VRB03KT 1/2SM SN FZFG VV003
     FM241300 36007KT 1SM -FZRASNPL BR OVC004
      AMD NOT SKED=



000
FTUS41 KOKX 231100
TAFLGA
TAF
KLGA 231139Z 2312/2412 32009KT P6SM SKC
     FM231600 VRB06KT P6SM FEW200
     FM231800 24008KT P6SM BKN200
     FM240000 22009KT P6SM SCT020 OVC040
     FM240200 22007KT 2SM -SN BR BKN020 OVC040
     FM240400 VRB06KT 1SM -SN BR BKN006 OVC015
      TEMPO 2407/2411 1/2SM SN FZFG OVC004
     FM241100 02010KT 1SM FZRASNPL BR OVC005=



000
FTUS41 KOKX 231100
TAFJFK
TAF
KJFK 231139Z 2312/2418 31009KT P6SM SKC
     FM231600 VRB06KT P6SM FEW200
     FM231800 22009KT P6SM BKN200
     FM240000 22008KT P6SM SCT020 OVC040
     FM240200 23007KT 2SM -SN BR BKN020 OVC040
     FM240400 VRB06KT 1SM -SN BR BKN006 OVC015
      TEMPO 2407/2411 1/2SM SN FZFG OVC004
     FM241100 36010KT 1SM FZRASNPL BR OVC005
     FM241300 34012KT 1SM -RAPL BR OVC005=



000
FTUS41 KOKX 231100
TAFEWR
TAF
KEWR 231139Z 2312/2418 32007KT P6SM SKC
     FM231600 VRB05KT P6SM FEW200
     FM231800 23007KT P6SM BKN200
     FM240000 22005KT P6SM SCT020 BKN040
     FM240200 21005KT 2SM -SN BKN020 OVC040
     FM240400 VRB06KT 1SM -SN BKN006 OVC015
      TEMPO 2407/2411 1/2SM SN FZFG OVC004
     FM241100 02010KT 1SM FZRASNPL BR OVC005
     FM241400 36012KT 1SM -SNRA BR OVC005=



000
FTUS41 KOKX 230800 AAA
TAFBDR
TAF AMD
KBDR 230841Z 2309/2406 31004KT P6SM SKC
     FM231400 VRB03KT P6SM FEW200
     FM231800 23007KT P6SM BKN200
     FM240200 22006KT P6SM SCT020 BKN100=



000
FTUS41 KOKX 230800 AAA
TAFLGA
TAF AMD
KLGA 230841Z 2309/2406 32012G17KT P6SM SKC
     FM231100 32009KT P6SM SKC
     FM231500 VRB04KT P6SM FEW200
     FM231800 24008KT P6SM BKN200
     FM240000 22009KT P6SM SCT030 OVC040
     FM240400 22006KT 2SM -SN BKN030 OVC040=



000
FTUS41 KOKX 230800 AAA
TAFGON
TAF AMD
KGON 230841Z 2309/2406 32008KT P6SM SKC
     FM231400 VRB03KT P6SM SKC
     FM231800 24008KT P6SM FEW200
     FM240100 24005KT P6SM SCT120 BKN200
     FM240400 22004KT P6SM SCT015 OVC060=



000
FTUS41 KOKX 230800 AAA
TAFISP
TAF AMD
KISP 230841Z 2309/2406 31006KT P6SM SKC
     FM231500 VRB03KT P6SM FEW200
     FM231800 24008KT P6SM BKN200
     FM240100 23007KT P6SM SCT030 BKN120
     FM240500 22004KT 2SM -SN BKN020 OVC030=



000
FTUS41 KOKX 230800 AAA
TAFJFK
TAF AMD
KJFK 230841Z 2309/2412 31009KT P6SM SKC
     FM231500 VRB04KT P6SM FEW200
     FM231800 22008KT P6SM BKN200
     FM240000 22008KT P6SM SCT025 BKN100
     FM240400 23006KT 2SM -SN BKN025 OVC040
     FM240900 02008KT 1SM -FZRASN BR OVC008=



000
FTUS41 KOKX 230800 AAA
TAFEWR
TAF AMD
KEWR 230841Z 2309/2412 32007KT P6SM SKC
     FM231300 VRB04KT P6SM FEW200
     FM231800 23007KT P6SM BKN200
     FM240000 22005KT P6SM SCT020 BKN080
     FM240400 21005KT 2SM -SN BKN020 OVC040
     FM241000 02010KT 1 1/2SM -FZRASN BR OVC008=



000
FTUS41 KOKX 230800 AAA
TAFSWF
TAF AMD
KSWF 230841Z 2309/2412 VRB05KT P6SM SKC
     FM231500 26006KT P6SM SCT200
     FM240100 23005KT P6SM SCT020 BKN100
     FM240600 VRB03KT 2SM -SN BR BKN015 OVC030
     FM240900 VRB03KT 1SM -SN BR OVC005
      AMD NOT SKED=



000
FTUS41 KOKX 230800 AAA
TAFTEB
TAF AMD
KTEB 230841Z 2309/2406 33005KT P6SM SKC
     FM231500 VRB04KT P6SM SKC
     FM231800 23007KT P6SM BKN200
     FM240000 24006KT P6SM SCT030 BKN100
     FM240400 24005KT 2SM -SN BKN025 OVC040=



000
FTUS41 KOKX 230500
TAFBDR
TAF
KBDR 230531Z 2306/2406 31004KT P6SM SKC
     FM231300 VRB03KT P6SM FEW200
     FM231800 23007KT P6SM BKN200
     FM240200 22006KT P6SM SCT020 BKN100=



000
FTUS41 KOKX 230500
TAFJFK
TAF
KJFK 230531Z 2306/2412 33012KT P6SM SKC
     FM230800 31008KT P6SM SKC
     FM231500 VRB04KT P6SM FEW200
     FM231800 22008KT P6SM BKN200
     FM240000 22008KT P6SM SCT025 BKN100
     FM240400 23006KT 2SM -SN BKN025 OVC040
     FM240900 02008KT 1SM -FZRASN BR OVC008=



000
FTUS41 KOKX 230500
TAFSWF
TAF
KSWF 230531Z 2306/2412 VRB04KT P6SM SKC
     FM231500 25006KT P6SM SCT200
     FM240100 23005KT P6SM SCT020 BKN100
     FM240600 VRB03KT 2SM -SN BR BKN015 OVC030
     FM240900 VRB03KT 1SM -SN BR OVC005
      AMD NOT SKED=



000
FTUS41 KOKX 230500
TAFGON
TAF
KGON 230531Z 2306/2406 32006KT P6SM SKC
     FM231400 VRB03KT P6SM SKC
     FM231800 24008KT P6SM FEW200
     FM240100 24005KT P6SM SCT120 BKN200
     FM240400 22004KT P6SM SCT015 OVC060=



000
FTUS41 KOKX 230500
TAFEWR
TAF
KEWR 230531Z 2306/2412 32009KT P6SM SKC
     FM231300 VRB04KT P6SM FEW200
     FM231800 23007KT P6SM BKN200
     FM240000 22005KT P6SM SCT020 BKN080
     FM240400 21005KT 2SM -SN BKN020 OVC040
     FM241000 02010KT 1 1/2SM -FZRASN BR OVC008=



000
FTUS41 KOKX 230500
TAFISP
TAF
KISP 230531Z 2306/2406 31006KT P6SM SKC
     FM231300 VRB03KT P6SM FEW200
     FM231800 24008KT P6SM BKN200
     FM240100 23007KT P6SM SCT030 BKN120
     FM240500 22004KT 2SM -SN BKN020 OVC030=



000
FTUS41 KOKX 230500
TAFTEB
TAF
KTEB 230531Z 2306/2406 32007KT P6SM SKC
     FM230700 VRB03KT P6SM SKC
     FM231800 23007KT P6SM BKN200
     FM240000 24006KT P6SM SCT030 BKN100
     FM240400 24005KT 2SM -SN BKN025 OVC040=



000
FTUS41 KOKX 230500
TAFLGA
TAF
KLGA 230531Z 2306/2406 31015KT P6SM SKC
     FM230800 32009KT P6SM SKC
     FM231500 VRB04KT P6SM FEW200
     FM231800 24008KT P6SM BKN200
     FM240000 22009KT P6SM SCT030 OVC040
     FM240400 22006KT 2SM -SN BKN030 OVC040=



000
FTUS41 KOKX 230200 AAA
TAFISP
TAF AMD
KISP 230230Z 2303/2324 30006KT P6SM SKC
     FM231300 VRB03KT P6SM FEW200
     FM231800 24008KT P6SM BKN200=



000
FTUS41 KOKX 230200 AAA
TAFJFK
TAF AMD
KJFK 230230Z 2303/2406 32008KT P6SM SKC
     FM231500 VRB04KT P6SM FEW200
     FM231800 22008KT P6SM BKN200
     FM240000 22008KT P6SM SCT025 BKN100
     FM240400 23006KT 2SM -SN BKN025 OVC040=



000
FTUS41 KOKX 230200 AAA
TAFEWR
TAF AMD
KEWR 230230Z 2303/2406 30007KT P6SM SKC
     FM231300 VRB04KT P6SM FEW200
     FM231800 22007KT P6SM BKN200
     FM240000 21005KT P6SM SCT020 BKN080
     FM240400 21005KT 2SM -SN BKN020 OVC040=



000
FTUS41 KOKX 230200 AAA
TAFLGA
TAF AMD
KLGA 230230Z 2303/2324 32009KT P6SM SKC
     FM231500 VRB04KT P6SM FEW200
     FM231800 22007KT P6SM BKN200=



000
FTUS41 KOKX 230200 AAA
TAFGON
TAF AMD
KGON 230230Z 2303/2324 31004KT P6SM SKC
     FM231400 VRB03KT P6SM SKC
     FM231800 24007KT P6SM SKC=



000
FTUS41 KOKX 230200 AAA
TAFTEB
TAF AMD
KTEB 230230Z 2303/2324 32005KT P6SM SKC
     FM230700 VRB03KT P6SM SKC
     FM231800 22006KT P6SM BKN200=



000
FTUS41 KOKX 230200 AAA
TAFBDR
TAF AMD
KBDR 230230Z 2303/2324 30005KT P6SM SKC
     FM231500 VRB03KT P6SM FEW200
     FM231800 22007KT P6SM BKN200=



    US Dept of Commerce
    National Oceanic and Atmospheric Administration
    National Weather Service
    1325 East West Highway
    Silver Spring, MD 20910
    Page Author: NWS Internet Services Team
Disclaimer
Information Quality
Credits
Glossary
Privacy Policy
Freedom of Information Act (FOIA)
About Us
Career Opportunities